<?xml version="1.0" encoding="UTF-8" standalone="no" ?>
<gpx xmlns="http://www.topografix.com/GPX/1/1" xmlns:xsi="http://www.w3.org/2001/XMLSchema-instance" xsi:schemaLocation="http://www.topografix.com/GPX/1/1 http://www.topografix.com/GPX/1/1/gpx.xsd" version="1.1" creator="VisuGPX - https://www.visugpx.com">
  <metadata>
    <name>col de blaux curban</name>
    <desc><![CDATA[col de blaux curban]]></desc>
  </metadata>
  <trk>
    <name><![CDATA[col de blaux curban_3]]></name>
    <trkseg>
      <trkpt lat="44.42157" lon="6.02686">
        <ele>646</ele>
        <time>2020-09-05T12:09:20.593Z</time>
      </trkpt>
      <trkpt lat="44.42163" lon="6.02688">
        <ele>649.1</ele>
        <time>2020-09-05T12:09:32.000Z</time>
      </trkpt>
      <trkpt lat="44.42158" lon="6.02681">
        <ele>652.4</ele>
        <time>2020-09-05T12:09:40.686Z</time>
      </trkpt>
      <trkpt lat="44.42153" lon="6.02673">
        <ele>651.1</ele>
        <time>2020-09-05T12:10:05.000Z</time>
      </trkpt>
      <trkpt lat="44.42157" lon="6.02676">
        <ele>655.7</ele>
        <time>2020-09-05T12:10:25.823Z</time>
      </trkpt>
      <trkpt lat="44.4216" lon="6.02682">
        <ele>647.8</ele>
        <time>2020-09-05T12:12:35.000Z</time>
      </trkpt>
      <trkpt lat="44.42165" lon="6.02686">
        <ele>644.9</ele>
        <time>2020-09-05T12:13:05.000Z</time>
      </trkpt>
      <trkpt lat="44.42159" lon="6.02684">
        <ele>643.8</ele>
        <time>2020-09-05T12:13:26.000Z</time>
      </trkpt>
      <trkpt lat="44.42158" lon="6.02679">
        <ele>653.6</ele>
        <time>2020-09-05T12:14:05.000Z</time>
      </trkpt>
      <trkpt lat="44.42154" lon="6.02673">
        <ele>656.7</ele>
        <time>2020-09-05T12:14:20.000Z</time>
      </trkpt>
      <trkpt lat="44.42165" lon="6.02676">
        <ele>657</ele>
        <time>2020-09-05T12:14:31.592Z</time>
      </trkpt>
      <trkpt lat="44.42158" lon="6.02677">
        <ele>654.2</ele>
        <time>2020-09-05T12:14:41.000Z</time>
      </trkpt>
      <trkpt lat="44.42152" lon="6.02675">
        <ele>655.2</ele>
        <time>2020-09-05T12:14:59.000Z</time>
      </trkpt>
      <trkpt lat="44.42148" lon="6.02672">
        <ele>651.3</ele>
        <time>2020-09-05T12:15:31.777Z</time>
      </trkpt>
      <trkpt lat="44.42153" lon="6.02676">
        <ele>650.6</ele>
        <time>2020-09-05T12:15:46.811Z</time>
      </trkpt>
      <trkpt lat="44.42157" lon="6.02679">
        <ele>650.1</ele>
        <time>2020-09-05T12:16:01.887Z</time>
      </trkpt>
      <trkpt lat="44.42163" lon="6.0268">
        <ele>653.4</ele>
        <time>2020-09-05T12:18:02.000Z</time>
      </trkpt>
      <trkpt lat="44.4216" lon="6.02672">
        <ele>659.4</ele>
        <time>2020-09-05T12:18:41.000Z</time>
      </trkpt>
      <trkpt lat="44.42155" lon="6.02673">
        <ele>657.9</ele>
        <time>2020-09-05T12:19:02.000Z</time>
      </trkpt>
      <trkpt lat="44.42163" lon="6.02676">
        <ele>647.9</ele>
        <time>2020-09-05T12:20:07.618Z</time>
      </trkpt>
      <trkpt lat="44.42168" lon="6.02679">
        <ele>649.1</ele>
        <time>2020-09-05T12:20:17.000Z</time>
      </trkpt>
      <trkpt lat="44.42167" lon="6.02686">
        <ele>646.9</ele>
        <time>2020-09-05T12:20:26.000Z</time>
      </trkpt>
      <trkpt lat="44.4216" lon="6.02686">
        <ele>644.4</ele>
        <time>2020-09-05T12:20:41.000Z</time>
      </trkpt>
      <trkpt lat="44.42161" lon="6.02679">
        <ele>651.6</ele>
        <time>2020-09-05T12:20:56.000Z</time>
      </trkpt>
      <trkpt lat="44.42159" lon="6.02672">
        <ele>651.8</ele>
        <time>2020-09-05T12:21:07.797Z</time>
      </trkpt>
      <trkpt lat="44.42153" lon="6.0267">
        <ele>651.6</ele>
        <time>2020-09-05T12:21:26.000Z</time>
      </trkpt>
      <trkpt lat="44.42156" lon="6.02676">
        <ele>652.4</ele>
        <time>2020-09-05T12:22:02.000Z</time>
      </trkpt>
      <trkpt lat="44.42157" lon="6.02682">
        <ele>652.3</ele>
        <time>2020-09-05T12:22:20.000Z</time>
      </trkpt>
      <trkpt lat="44.42162" lon="6.02677">
        <ele>653.9</ele>
        <time>2020-09-05T12:23:11.000Z</time>
      </trkpt>
      <trkpt lat="44.42161" lon="6.02671">
        <ele>662.4</ele>
        <time>2020-09-05T12:23:58.438Z</time>
      </trkpt>
      <trkpt lat="44.42162" lon="6.02677">
        <ele>654.5</ele>
        <time>2020-09-05T12:24:47.000Z</time>
      </trkpt>
      <trkpt lat="44.42162" lon="6.02684">
        <ele>639.3</ele>
        <time>2020-09-05T12:29:59.726Z</time>
      </trkpt>
      <trkpt lat="44.42167" lon="6.02694">
        <ele>641.6</ele>
        <time>2020-09-05T12:30:11.000Z</time>
      </trkpt>
      <trkpt lat="44.4217" lon="6.02704">
        <ele>639.3</ele>
        <time>2020-09-05T12:30:29.000Z</time>
      </trkpt>
      <trkpt lat="44.42174" lon="6.02708">
        <ele>641.6</ele>
        <time>2020-09-05T12:31:08.000Z</time>
      </trkpt>
      <trkpt lat="44.42169" lon="6.02709">
        <ele>641.6</ele>
        <time>2020-09-05T12:32:35.315Z</time>
      </trkpt>
      <trkpt lat="44.4217" lon="6.02718">
        <ele>641.6</ele>
        <time>2020-09-05T12:33:41.000Z</time>
      </trkpt>
      <trkpt lat="44.42175" lon="6.02724">
        <ele>641.6</ele>
        <time>2020-09-05T12:33:56.000Z</time>
      </trkpt>
      <trkpt lat="44.42177" lon="6.02718">
        <ele>641.6</ele>
        <time>2020-09-05T12:34:08.000Z</time>
      </trkpt>
      <trkpt lat="44.42177" lon="6.02727">
        <ele>641.6</ele>
        <time>2020-09-05T12:36:08.000Z</time>
      </trkpt>
      <trkpt lat="44.42173" lon="6.02722">
        <ele>641.6</ele>
        <time>2020-09-05T12:36:14.394Z</time>
      </trkpt>
      <trkpt lat="44.42177" lon="6.02714">
        <ele>639.3</ele>
        <time>2020-09-05T12:36:26.000Z</time>
      </trkpt>
      <trkpt lat="44.4218" lon="6.02701">
        <ele>641.6</ele>
        <time>2020-09-05T12:36:35.000Z</time>
      </trkpt>
      <trkpt lat="44.42177" lon="6.02694">
        <ele>641.6</ele>
        <time>2020-09-05T12:36:41.000Z</time>
      </trkpt>
      <trkpt lat="44.42173" lon="6.02692">
        <ele>647.9</ele>
        <time>2020-09-05T12:36:45.056Z</time>
      </trkpt>
      <trkpt lat="44.42168" lon="6.02691">
        <ele>647.9</ele>
        <time>2020-09-05T12:36:53.000Z</time>
      </trkpt>
      <trkpt lat="44.42173" lon="6.02692">
        <ele>639.7</ele>
        <time>2020-09-05T12:37:13.664Z</time>
      </trkpt>
      <trkpt lat="44.42173" lon="6.02702">
        <ele>641.6</ele>
        <time>2020-09-05T12:37:21.025Z</time>
      </trkpt>
      <trkpt lat="44.42171" lon="6.02708">
        <ele>641.6</ele>
        <time>2020-09-05T12:37:28.651Z</time>
      </trkpt>
      <trkpt lat="44.42174" lon="6.02716">
        <ele>641.6</ele>
        <time>2020-09-05T12:37:39.032Z</time>
      </trkpt>
      <trkpt lat="44.4218" lon="6.02717">
        <ele>641.6</ele>
        <time>2020-09-05T12:38:47.000Z</time>
      </trkpt>
      <trkpt lat="44.42188" lon="6.02737">
        <ele>641.6</ele>
        <time>2020-09-05T12:38:59.000Z</time>
      </trkpt>
      <trkpt lat="44.42188" lon="6.02756">
        <ele>641.6</ele>
        <time>2020-09-05T12:39:02.000Z</time>
      </trkpt>
      <trkpt lat="44.42191" lon="6.02771">
        <ele>641.6</ele>
        <time>2020-09-05T12:39:05.387Z</time>
      </trkpt>
      <trkpt lat="44.42205" lon="6.028">
        <ele>641.6</ele>
        <time>2020-09-05T12:39:11.000Z</time>
      </trkpt>
      <trkpt lat="44.42217" lon="6.02808">
        <ele>641.6</ele>
        <time>2020-09-05T12:39:14.000Z</time>
      </trkpt>
      <trkpt lat="44.42242" lon="6.02817">
        <ele>641.6</ele>
        <time>2020-09-05T12:39:20.000Z</time>
      </trkpt>
      <trkpt lat="44.42249" lon="6.0283">
        <ele>641.6</ele>
        <time>2020-09-05T12:39:26.000Z</time>
      </trkpt>
      <trkpt lat="44.42231" lon="6.02845">
        <ele>641.6</ele>
        <time>2020-09-05T12:39:29.000Z</time>
      </trkpt>
      <trkpt lat="44.42198" lon="6.02872">
        <ele>641.6</ele>
        <time>2020-09-05T12:39:32.000Z</time>
      </trkpt>
      <trkpt lat="44.42148" lon="6.02914">
        <ele>641.6</ele>
        <time>2020-09-05T12:39:38.000Z</time>
      </trkpt>
      <trkpt lat="44.42101" lon="6.02957">
        <ele>641.6</ele>
        <time>2020-09-05T12:39:44.000Z</time>
      </trkpt>
      <trkpt lat="44.42075" lon="6.02978">
        <ele>641.6</ele>
        <time>2020-09-05T12:39:47.251Z</time>
      </trkpt>
      <trkpt lat="44.42049" lon="6.03">
        <ele>641.6</ele>
        <time>2020-09-05T12:39:50.000Z</time>
      </trkpt>
      <trkpt lat="44.42002" lon="6.03035">
        <ele>666.6</ele>
        <time>2020-09-05T12:39:56.000Z</time>
      </trkpt>
      <trkpt lat="44.41982" lon="6.03061">
        <ele>669.5</ele>
        <time>2020-09-05T12:40:02.000Z</time>
      </trkpt>
      <trkpt lat="44.41982" lon="6.03072">
        <ele>670.1</ele>
        <time>2020-09-05T12:40:05.000Z</time>
      </trkpt>
      <trkpt lat="44.42021" lon="6.03126">
        <ele>656.4</ele>
        <time>2020-09-05T12:40:11.000Z</time>
      </trkpt>
      <trkpt lat="44.4208" lon="6.03205">
        <ele>664.7</ele>
        <time>2020-09-05T12:40:17.000Z</time>
      </trkpt>
      <trkpt lat="44.42094" lon="6.03292">
        <ele>668.4</ele>
        <time>2020-09-05T12:40:23.000Z</time>
      </trkpt>
      <trkpt lat="44.42106" lon="6.03328">
        <ele>671.8</ele>
        <time>2020-09-05T12:40:26.000Z</time>
      </trkpt>
      <trkpt lat="44.42137" lon="6.03389">
        <ele>671.3</ele>
        <time>2020-09-05T12:40:32.000Z</time>
      </trkpt>
      <trkpt lat="44.42161" lon="6.03415">
        <ele>672</ele>
        <time>2020-09-05T12:40:35.000Z</time>
      </trkpt>
      <trkpt lat="44.42188" lon="6.03434">
        <ele>669.8</ele>
        <time>2020-09-05T12:40:38.000Z</time>
      </trkpt>
      <trkpt lat="44.42197" lon="6.03457">
        <ele>666.2</ele>
        <time>2020-09-05T12:40:44.000Z</time>
      </trkpt>
      <trkpt lat="44.42179" lon="6.03475">
        <ele>667.4</ele>
        <time>2020-09-05T12:40:50.000Z</time>
      </trkpt>
      <trkpt lat="44.42171" lon="6.03497">
        <ele>667.8</ele>
        <time>2020-09-05T12:40:53.000Z</time>
      </trkpt>
      <trkpt lat="44.42138" lon="6.03534">
        <ele>671.9</ele>
        <time>2020-09-05T12:40:59.000Z</time>
      </trkpt>
      <trkpt lat="44.42121" lon="6.03531">
        <ele>675.2</ele>
        <time>2020-09-05T12:41:02.000Z</time>
      </trkpt>
      <trkpt lat="44.4211" lon="6.03522">
        <ele>679</ele>
        <time>2020-09-05T12:41:07.321Z</time>
      </trkpt>
      <trkpt lat="44.42116" lon="6.03525">
        <ele>682.8</ele>
        <time>2020-09-05T12:41:11.000Z</time>
      </trkpt>
      <trkpt lat="44.42106" lon="6.03539">
        <ele>682.7</ele>
        <time>2020-09-05T12:41:47.000Z</time>
      </trkpt>
      <trkpt lat="44.42099" lon="6.0356">
        <ele>683</ele>
        <time>2020-09-05T12:41:50.000Z</time>
      </trkpt>
      <trkpt lat="44.42092" lon="6.03591">
        <ele>682.9</ele>
        <time>2020-09-05T12:41:53.000Z</time>
      </trkpt>
      <trkpt lat="44.42089" lon="6.03634">
        <ele>684.7</ele>
        <time>2020-09-05T12:41:59.000Z</time>
      </trkpt>
      <trkpt lat="44.42117" lon="6.03652">
        <ele>687.8</ele>
        <time>2020-09-05T12:42:05.000Z</time>
      </trkpt>
      <trkpt lat="44.4214" lon="6.03656">
        <ele>692.2</ele>
        <time>2020-09-05T12:42:11.000Z</time>
      </trkpt>
      <trkpt lat="44.42148" lon="6.03655">
        <ele>692.9</ele>
        <time>2020-09-05T12:42:23.000Z</time>
      </trkpt>
      <trkpt lat="44.42165" lon="6.03654">
        <ele>692.9</ele>
        <time>2020-09-05T12:42:26.000Z</time>
      </trkpt>
      <trkpt lat="44.42177" lon="6.03657">
        <ele>693.2</ele>
        <time>2020-09-05T12:42:29.000Z</time>
      </trkpt>
      <trkpt lat="44.42196" lon="6.03666">
        <ele>691.3</ele>
        <time>2020-09-05T12:42:35.000Z</time>
      </trkpt>
      <trkpt lat="44.42213" lon="6.03671">
        <ele>690.2</ele>
        <time>2020-09-05T12:42:38.000Z</time>
      </trkpt>
      <trkpt lat="44.42235" lon="6.03672">
        <ele>689.8</ele>
        <time>2020-09-05T12:42:41.249Z</time>
      </trkpt>
      <trkpt lat="44.42247" lon="6.03666">
        <ele>689.7</ele>
        <time>2020-09-05T12:42:46.261Z</time>
      </trkpt>
      <trkpt lat="44.42262" lon="6.03671">
        <ele>687.8</ele>
        <time>2020-09-05T12:42:50.000Z</time>
      </trkpt>
      <trkpt lat="44.42303" lon="6.03697">
        <ele>686.9</ele>
        <time>2020-09-05T12:42:56.000Z</time>
      </trkpt>
      <trkpt lat="44.42337" lon="6.03706">
        <ele>684.2</ele>
        <time>2020-09-05T12:43:02.000Z</time>
      </trkpt>
      <trkpt lat="44.42347" lon="6.03706">
        <ele>681.2</ele>
        <time>2020-09-05T12:43:05.000Z</time>
      </trkpt>
      <trkpt lat="44.42362" lon="6.03715">
        <ele>680.3</ele>
        <time>2020-09-05T12:43:36.402Z</time>
      </trkpt>
      <trkpt lat="44.42358" lon="6.03713">
        <ele>678</ele>
        <time>2020-09-05T12:43:41.000Z</time>
      </trkpt>
      <trkpt lat="44.42392" lon="6.03744">
        <ele>676.7</ele>
        <time>2020-09-05T12:43:47.000Z</time>
      </trkpt>
      <trkpt lat="44.42454" lon="6.03801">
        <ele>678.6</ele>
        <time>2020-09-05T12:43:53.000Z</time>
      </trkpt>
      <trkpt lat="44.42464" lon="6.03806">
        <ele>678.5</ele>
        <time>2020-09-05T12:43:57.087Z</time>
      </trkpt>
      <trkpt lat="44.42465" lon="6.038">
        <ele>679.8</ele>
        <time>2020-09-05T12:44:01.626Z</time>
      </trkpt>
      <trkpt lat="44.42469" lon="6.03816">
        <ele>681.5</ele>
        <time>2020-09-05T12:44:05.000Z</time>
      </trkpt>
      <trkpt lat="44.42471" lon="6.03825">
        <ele>680.7</ele>
        <time>2020-09-05T12:44:08.313Z</time>
      </trkpt>
      <trkpt lat="44.42489" lon="6.03857">
        <ele>682.7</ele>
        <time>2020-09-05T12:44:26.000Z</time>
      </trkpt>
      <trkpt lat="44.42508" lon="6.03914">
        <ele>685.9</ele>
        <time>2020-09-05T12:44:32.000Z</time>
      </trkpt>
      <trkpt lat="44.4252" lon="6.03943">
        <ele>689.7</ele>
        <time>2020-09-05T12:44:35.280Z</time>
      </trkpt>
      <trkpt lat="44.42527" lon="6.03983">
        <ele>693.5</ele>
        <time>2020-09-05T12:44:41.000Z</time>
      </trkpt>
      <trkpt lat="44.42531" lon="6.04019">
        <ele>697.8</ele>
        <time>2020-09-05T12:44:47.000Z</time>
      </trkpt>
      <trkpt lat="44.42539" lon="6.04031">
        <ele>699.1</ele>
        <time>2020-09-05T12:44:50.000Z</time>
      </trkpt>
      <trkpt lat="44.42558" lon="6.04062">
        <ele>702.1</ele>
        <time>2020-09-05T12:44:56.000Z</time>
      </trkpt>
      <trkpt lat="44.42576" lon="6.04098">
        <ele>703.5</ele>
        <time>2020-09-05T12:45:02.000Z</time>
      </trkpt>
      <trkpt lat="44.42583" lon="6.04107">
        <ele>702.3</ele>
        <time>2020-09-05T12:45:05.000Z</time>
      </trkpt>
      <trkpt lat="44.42607" lon="6.04142">
        <ele>701.3</ele>
        <time>2020-09-05T12:45:11.000Z</time>
      </trkpt>
      <trkpt lat="44.4262" lon="6.04181">
        <ele>702.8</ele>
        <time>2020-09-05T12:45:14.287Z</time>
      </trkpt>
      <trkpt lat="44.4263" lon="6.0423">
        <ele>708.6</ele>
        <time>2020-09-05T12:45:20.000Z</time>
      </trkpt>
      <trkpt lat="44.42631" lon="6.04244">
        <ele>709.8</ele>
        <time>2020-09-05T12:45:23.000Z</time>
      </trkpt>
      <trkpt lat="44.42637" lon="6.04245">
        <ele>707.6</ele>
        <time>2020-09-05T12:45:26.000Z</time>
      </trkpt>
      <trkpt lat="44.42635" lon="6.0427">
        <ele>708.8</ele>
        <time>2020-09-05T12:45:31.663Z</time>
      </trkpt>
      <trkpt lat="44.42644" lon="6.04287">
        <ele>718</ele>
        <time>2020-09-05T12:45:35.000Z</time>
      </trkpt>
      <trkpt lat="44.42657" lon="6.04312">
        <ele>720.6</ele>
        <time>2020-09-05T12:45:39.078Z</time>
      </trkpt>
      <trkpt lat="44.4266" lon="6.04345">
        <ele>722.1</ele>
        <time>2020-09-05T12:45:44.000Z</time>
      </trkpt>
      <trkpt lat="44.42661" lon="6.04355">
        <ele>722.8</ele>
        <time>2020-09-05T12:45:49.297Z</time>
      </trkpt>
      <trkpt lat="44.42667" lon="6.04353">
        <ele>724.5</ele>
        <time>2020-09-05T12:46:02.000Z</time>
      </trkpt>
      <trkpt lat="44.42678" lon="6.0437">
        <ele>721</ele>
        <time>2020-09-05T12:46:21.250Z</time>
      </trkpt>
      <trkpt lat="44.42718" lon="6.04398">
        <ele>718.9</ele>
        <time>2020-09-05T12:46:26.000Z</time>
      </trkpt>
      <trkpt lat="44.42717" lon="6.04359">
        <ele>717.1</ele>
        <time>2020-09-05T12:46:32.000Z</time>
      </trkpt>
      <trkpt lat="44.42705" lon="6.04308">
        <ele>711.1</ele>
        <time>2020-09-05T12:46:38.000Z</time>
      </trkpt>
      <trkpt lat="44.42694" lon="6.04277">
        <ele>708.8</ele>
        <time>2020-09-05T12:46:41.000Z</time>
      </trkpt>
      <trkpt lat="44.42693" lon="6.04206">
        <ele>701.6</ele>
        <time>2020-09-05T12:46:47.000Z</time>
      </trkpt>
      <trkpt lat="44.42699" lon="6.04167">
        <ele>694.1</ele>
        <time>2020-09-05T12:46:53.000Z</time>
      </trkpt>
      <trkpt lat="44.42731" lon="6.04143">
        <ele>688.2</ele>
        <time>2020-09-05T12:46:59.000Z</time>
      </trkpt>
      <trkpt lat="44.42738" lon="6.04115">
        <ele>685.1</ele>
        <time>2020-09-05T12:47:02.000Z</time>
      </trkpt>
      <trkpt lat="44.4275" lon="6.04079">
        <ele>683</ele>
        <time>2020-09-05T12:47:05.000Z</time>
      </trkpt>
      <trkpt lat="44.42782" lon="6.04038">
        <ele>680.3</ele>
        <time>2020-09-05T12:47:11.000Z</time>
      </trkpt>
      <trkpt lat="44.42799" lon="6.04036">
        <ele>678.4</ele>
        <time>2020-09-05T12:47:14.000Z</time>
      </trkpt>
      <trkpt lat="44.4282" lon="6.04031">
        <ele>679.6</ele>
        <time>2020-09-05T12:47:20.000Z</time>
      </trkpt>
      <trkpt lat="44.42817" lon="6.04037">
        <ele>678.8</ele>
        <time>2020-09-05T12:47:26.000Z</time>
      </trkpt>
      <trkpt lat="44.42822" lon="6.04042">
        <ele>678.6</ele>
        <time>2020-09-05T12:47:41.000Z</time>
      </trkpt>
      <trkpt lat="44.42835" lon="6.04054">
        <ele>678.5</ele>
        <time>2020-09-05T12:47:44.000Z</time>
      </trkpt>
      <trkpt lat="44.42851" lon="6.04055">
        <ele>679.8</ele>
        <time>2020-09-05T12:47:47.000Z</time>
      </trkpt>
      <trkpt lat="44.42854" lon="6.04041">
        <ele>681.5</ele>
        <time>2020-09-05T12:47:50.314Z</time>
      </trkpt>
      <trkpt lat="44.4283" lon="6.03999">
        <ele>683.8</ele>
        <time>2020-09-05T12:47:56.000Z</time>
      </trkpt>
      <trkpt lat="44.42827" lon="6.03957">
        <ele>687.6</ele>
        <time>2020-09-05T12:48:02.000Z</time>
      </trkpt>
      <trkpt lat="44.42841" lon="6.03961">
        <ele>689.6</ele>
        <time>2020-09-05T12:48:08.000Z</time>
      </trkpt>
      <trkpt lat="44.42857" lon="6.03961">
        <ele>691</ele>
        <time>2020-09-05T12:48:11.000Z</time>
      </trkpt>
      <trkpt lat="44.42875" lon="6.0396">
        <ele>693.3</ele>
        <time>2020-09-05T12:48:14.237Z</time>
      </trkpt>
      <trkpt lat="44.42884" lon="6.03963">
        <ele>696.6</ele>
        <time>2020-09-05T12:48:17.000Z</time>
      </trkpt>
      <trkpt lat="44.42911" lon="6.03953">
        <ele>707.2</ele>
        <time>2020-09-05T12:48:38.000Z</time>
      </trkpt>
      <trkpt lat="44.42939" lon="6.03957">
        <ele>709.5</ele>
        <time>2020-09-05T12:48:41.000Z</time>
      </trkpt>
      <trkpt lat="44.42974" lon="6.0398">
        <ele>707.9</ele>
        <time>2020-09-05T12:48:44.000Z</time>
      </trkpt>
      <trkpt lat="44.42998" lon="6.04">
        <ele>709.2</ele>
        <time>2020-09-05T12:48:47.000Z</time>
      </trkpt>
      <trkpt lat="44.43033" lon="6.04054">
        <ele>710.7</ele>
        <time>2020-09-05T12:48:53.000Z</time>
      </trkpt>
      <trkpt lat="44.43055" lon="6.04083">
        <ele>711.8</ele>
        <time>2020-09-05T12:48:56.000Z</time>
      </trkpt>
      <trkpt lat="44.43108" lon="6.04149">
        <ele>711.3</ele>
        <time>2020-09-05T12:49:02.000Z</time>
      </trkpt>
      <trkpt lat="44.43127" lon="6.04197">
        <ele>710.7</ele>
        <time>2020-09-05T12:49:05.000Z</time>
      </trkpt>
      <trkpt lat="44.4314" lon="6.04259">
        <ele>713.9</ele>
        <time>2020-09-05T12:49:11.000Z</time>
      </trkpt>
      <trkpt lat="44.43104" lon="6.04251">
        <ele>715.9</ele>
        <time>2020-09-05T12:49:17.000Z</time>
      </trkpt>
      <trkpt lat="44.43094" lon="6.04309">
        <ele>717.4</ele>
        <time>2020-09-05T12:49:23.000Z</time>
      </trkpt>
      <trkpt lat="44.43095" lon="6.04353">
        <ele>721</ele>
        <time>2020-09-05T12:49:26.000Z</time>
      </trkpt>
      <trkpt lat="44.43117" lon="6.04422">
        <ele>720.9</ele>
        <time>2020-09-05T12:49:32.000Z</time>
      </trkpt>
      <trkpt lat="44.43135" lon="6.04456">
        <ele>719.4</ele>
        <time>2020-09-05T12:49:35.000Z</time>
      </trkpt>
      <trkpt lat="44.43164" lon="6.04529">
        <ele>715.2</ele>
        <time>2020-09-05T12:49:41.000Z</time>
      </trkpt>
      <trkpt lat="44.43168" lon="6.04566">
        <ele>713</ele>
        <time>2020-09-05T12:49:44.000Z</time>
      </trkpt>
      <trkpt lat="44.43161" lon="6.04596">
        <ele>713.8</ele>
        <time>2020-09-05T12:49:47.000Z</time>
      </trkpt>
      <trkpt lat="44.43118" lon="6.04594">
        <ele>713.5</ele>
        <time>2020-09-05T12:49:53.000Z</time>
      </trkpt>
      <trkpt lat="44.43114" lon="6.04622">
        <ele>714.6</ele>
        <time>2020-09-05T12:49:59.000Z</time>
      </trkpt>
      <trkpt lat="44.43128" lon="6.0467">
        <ele>713.3</ele>
        <time>2020-09-05T12:50:02.000Z</time>
      </trkpt>
      <trkpt lat="44.43148" lon="6.04724">
        <ele>713</ele>
        <time>2020-09-05T12:50:05.000Z</time>
      </trkpt>
      <trkpt lat="44.43154" lon="6.04773">
        <ele>712.7</ele>
        <time>2020-09-05T12:50:08.000Z</time>
      </trkpt>
      <trkpt lat="44.43156" lon="6.04877">
        <ele>717.2</ele>
        <time>2020-09-05T12:50:14.000Z</time>
      </trkpt>
      <trkpt lat="44.43154" lon="6.04926">
        <ele>716.9</ele>
        <time>2020-09-05T12:50:17.000Z</time>
      </trkpt>
      <trkpt lat="44.43132" lon="6.05008">
        <ele>716.4</ele>
        <time>2020-09-05T12:50:23.000Z</time>
      </trkpt>
      <trkpt lat="44.43121" lon="6.05034">
        <ele>719.6</ele>
        <time>2020-09-05T12:50:29.000Z</time>
      </trkpt>
      <trkpt lat="44.43122" lon="6.05017">
        <ele>720</ele>
        <time>2020-09-05T12:50:35.000Z</time>
      </trkpt>
      <trkpt lat="44.43121" lon="6.0503">
        <ele>723.2</ele>
        <time>2020-09-05T12:52:11.568Z</time>
      </trkpt>
      <trkpt lat="44.43129" lon="6.05085">
        <ele>726.8</ele>
        <time>2020-09-05T12:52:17.000Z</time>
      </trkpt>
      <trkpt lat="44.43135" lon="6.05127">
        <ele>728.1</ele>
        <time>2020-09-05T12:52:20.000Z</time>
      </trkpt>
      <trkpt lat="44.43139" lon="6.05217">
        <ele>731.9</ele>
        <time>2020-09-05T12:52:26.000Z</time>
      </trkpt>
      <trkpt lat="44.43172" lon="6.05293">
        <ele>735.7</ele>
        <time>2020-09-05T12:52:32.000Z</time>
      </trkpt>
      <trkpt lat="44.43201" lon="6.05314">
        <ele>741.2</ele>
        <time>2020-09-05T12:52:35.000Z</time>
      </trkpt>
      <trkpt lat="44.43234" lon="6.0533">
        <ele>740.5</ele>
        <time>2020-09-05T12:52:38.000Z</time>
      </trkpt>
      <trkpt lat="44.43273" lon="6.05349">
        <ele>741.1</ele>
        <time>2020-09-05T12:52:41.000Z</time>
      </trkpt>
      <trkpt lat="44.4335" lon="6.05388">
        <ele>741.3</ele>
        <time>2020-09-05T12:52:47.000Z</time>
      </trkpt>
      <trkpt lat="44.43419" lon="6.05406">
        <ele>738.2</ele>
        <time>2020-09-05T12:52:53.000Z</time>
      </trkpt>
      <trkpt lat="44.43493" lon="6.05417">
        <ele>735.3</ele>
        <time>2020-09-05T12:52:59.000Z</time>
      </trkpt>
      <trkpt lat="44.43531" lon="6.05409">
        <ele>733.8</ele>
        <time>2020-09-05T12:53:02.000Z</time>
      </trkpt>
      <trkpt lat="44.43567" lon="6.05423">
        <ele>731.2</ele>
        <time>2020-09-05T12:53:05.000Z</time>
      </trkpt>
      <trkpt lat="44.43599" lon="6.05439">
        <ele>728.3</ele>
        <time>2020-09-05T12:53:08.000Z</time>
      </trkpt>
      <trkpt lat="44.43662" lon="6.05451">
        <ele>727.8</ele>
        <time>2020-09-05T12:53:14.000Z</time>
      </trkpt>
      <trkpt lat="44.43697" lon="6.0545">
        <ele>728.6</ele>
        <time>2020-09-05T12:53:17.000Z</time>
      </trkpt>
      <trkpt lat="44.43736" lon="6.05451">
        <ele>729.5</ele>
        <time>2020-09-05T12:53:20.000Z</time>
      </trkpt>
      <trkpt lat="44.4381" lon="6.05444">
        <ele>727.6</ele>
        <time>2020-09-05T12:53:26.000Z</time>
      </trkpt>
      <trkpt lat="44.43846" lon="6.05419">
        <ele>724.7</ele>
        <time>2020-09-05T12:53:29.000Z</time>
      </trkpt>
      <trkpt lat="44.43911" lon="6.05351">
        <ele>725.1</ele>
        <time>2020-09-05T12:53:35.000Z</time>
      </trkpt>
      <trkpt lat="44.43929" lon="6.0536">
        <ele>725.2</ele>
        <time>2020-09-05T12:53:38.000Z</time>
      </trkpt>
      <trkpt lat="44.43949" lon="6.0539">
        <ele>725.3</ele>
        <time>2020-09-05T12:53:41.000Z</time>
      </trkpt>
      <trkpt lat="44.43973" lon="6.05427">
        <ele>722.5</ele>
        <time>2020-09-05T12:53:44.000Z</time>
      </trkpt>
      <trkpt lat="44.43999" lon="6.05462">
        <ele>720.7</ele>
        <time>2020-09-05T12:53:47.000Z</time>
      </trkpt>
      <trkpt lat="44.44069" lon="6.05533">
        <ele>715.2</ele>
        <time>2020-09-05T12:53:53.000Z</time>
      </trkpt>
      <trkpt lat="44.44153" lon="6.05569">
        <ele>709.7</ele>
        <time>2020-09-05T12:53:59.000Z</time>
      </trkpt>
      <trkpt lat="44.44239" lon="6.05622">
        <ele>702.6</ele>
        <time>2020-09-05T12:54:05.000Z</time>
      </trkpt>
      <trkpt lat="44.44276" lon="6.05644">
        <ele>699.5</ele>
        <time>2020-09-05T12:54:08.000Z</time>
      </trkpt>
      <trkpt lat="44.44307" lon="6.05662">
        <ele>697.9</ele>
        <time>2020-09-05T12:54:11.000Z</time>
      </trkpt>
      <trkpt lat="44.4436" lon="6.05695">
        <ele>693.1</ele>
        <time>2020-09-05T12:54:17.000Z</time>
      </trkpt>
      <trkpt lat="44.44376" lon="6.05707">
        <ele>691.3</ele>
        <time>2020-09-05T12:54:20.000Z</time>
      </trkpt>
      <trkpt lat="44.44383" lon="6.0571">
        <ele>689.9</ele>
        <time>2020-09-05T12:54:25.226Z</time>
      </trkpt>
      <trkpt lat="44.44375" lon="6.05722">
        <ele>692.9</ele>
        <time>2020-09-05T12:54:29.000Z</time>
      </trkpt>
      <trkpt lat="44.44381" lon="6.05768">
        <ele>690.7</ele>
        <time>2020-09-05T12:54:35.000Z</time>
      </trkpt>
      <trkpt lat="44.44387" lon="6.05793">
        <ele>691.4</ele>
        <time>2020-09-05T12:54:38.000Z</time>
      </trkpt>
      <trkpt lat="44.44396" lon="6.05836">
        <ele>688</ele>
        <time>2020-09-05T12:54:44.000Z</time>
      </trkpt>
      <trkpt lat="44.444" lon="6.05859">
        <ele>690.1</ele>
        <time>2020-09-05T12:54:47.000Z</time>
      </trkpt>
      <trkpt lat="44.44411" lon="6.05902">
        <ele>698.4</ele>
        <time>2020-09-05T12:54:53.000Z</time>
      </trkpt>
      <trkpt lat="44.44404" lon="6.05878">
        <ele>692.5</ele>
        <time>2020-09-05T12:55:17.000Z</time>
      </trkpt>
      <trkpt lat="44.44399" lon="6.05856">
        <ele>689.1</ele>
        <time>2020-09-05T12:55:20.000Z</time>
      </trkpt>
      <trkpt lat="44.444" lon="6.05846">
        <ele>687.1</ele>
        <time>2020-09-05T12:55:23.284Z</time>
      </trkpt>
      <trkpt lat="44.44404" lon="6.05834">
        <ele>692.2</ele>
        <time>2020-09-05T12:56:26.000Z</time>
      </trkpt>
      <trkpt lat="44.44428" lon="6.05824">
        <ele>689.7</ele>
        <time>2020-09-05T12:56:32.000Z</time>
      </trkpt>
      <trkpt lat="44.44474" lon="6.05828">
        <ele>687.5</ele>
        <time>2020-09-05T12:56:38.000Z</time>
      </trkpt>
      <trkpt lat="44.44519" lon="6.05859">
        <ele>688.2</ele>
        <time>2020-09-05T12:56:44.000Z</time>
      </trkpt>
      <trkpt lat="44.44561" lon="6.0587">
        <ele>688</ele>
        <time>2020-09-05T12:56:50.000Z</time>
      </trkpt>
      <trkpt lat="44.4459" lon="6.05866">
        <ele>686.6</ele>
        <time>2020-09-05T12:56:56.000Z</time>
      </trkpt>
      <trkpt lat="44.44597" lon="6.05851">
        <ele>683.4</ele>
        <time>2020-09-05T12:57:08.000Z</time>
      </trkpt>
      <trkpt lat="44.44604" lon="6.05847">
        <ele>682.9</ele>
        <time>2020-09-05T12:57:11.664Z</time>
      </trkpt>
      <trkpt lat="44.44646" lon="6.05867">
        <ele>678.7</ele>
        <time>2020-09-05T12:57:17.000Z</time>
      </trkpt>
      <trkpt lat="44.44678" lon="6.0588">
        <ele>673.8</ele>
        <time>2020-09-05T12:57:20.000Z</time>
      </trkpt>
      <trkpt lat="44.44742" lon="6.05866">
        <ele>671.9</ele>
        <time>2020-09-05T12:57:26.000Z</time>
      </trkpt>
      <trkpt lat="44.44788" lon="6.05849">
        <ele>673</ele>
        <time>2020-09-05T12:57:32.000Z</time>
      </trkpt>
      <trkpt lat="44.448" lon="6.05852">
        <ele>674</ele>
        <time>2020-09-05T12:57:35.000Z</time>
      </trkpt>
      <trkpt lat="44.44812" lon="6.05858">
        <ele>674.7</ele>
        <time>2020-09-05T12:57:40.350Z</time>
      </trkpt>
      <trkpt lat="44.44821" lon="6.05869">
        <ele>676.5</ele>
        <time>2020-09-05T12:57:44.000Z</time>
      </trkpt>
      <trkpt lat="44.44822" lon="6.05887">
        <ele>676.7</ele>
        <time>2020-09-05T12:57:47.000Z</time>
      </trkpt>
      <trkpt lat="44.44855" lon="6.05918">
        <ele>678.9</ele>
        <time>2020-09-05T12:57:53.000Z</time>
      </trkpt>
      <trkpt lat="44.4487" lon="6.05928">
        <ele>677.7</ele>
        <time>2020-09-05T12:57:58.317Z</time>
      </trkpt>
      <trkpt lat="44.44884" lon="6.05936">
        <ele>673.9</ele>
        <time>2020-09-05T12:58:02.000Z</time>
      </trkpt>
      <trkpt lat="44.44898" lon="6.05944">
        <ele>675.8</ele>
        <time>2020-09-05T12:58:05.000Z</time>
      </trkpt>
      <trkpt lat="44.44901" lon="6.0595">
        <ele>675.8</ele>
        <time>2020-09-05T12:58:08.000Z</time>
      </trkpt>
      <trkpt lat="44.4489" lon="6.05944">
        <ele>678.2</ele>
        <time>2020-09-05T12:58:17.000Z</time>
      </trkpt>
      <trkpt lat="44.44903" lon="6.05952">
        <ele>678</ele>
        <time>2020-09-05T12:58:29.000Z</time>
      </trkpt>
      <trkpt lat="44.44912" lon="6.05951">
        <ele>677.3</ele>
        <time>2020-09-05T12:58:32.000Z</time>
      </trkpt>
      <trkpt lat="44.44899" lon="6.05948">
        <ele>676.1</ele>
        <time>2020-09-05T12:58:35.528Z</time>
      </trkpt>
      <trkpt lat="44.44893" lon="6.05952">
        <ele>674.9</ele>
        <time>2020-09-05T12:58:39.310Z</time>
      </trkpt>
      <trkpt lat="44.44903" lon="6.05962">
        <ele>673.7</ele>
        <time>2020-09-05T12:58:43.666Z</time>
      </trkpt>
      <trkpt lat="44.4494" lon="6.05998">
        <ele>673.3</ele>
        <time>2020-09-05T12:58:47.000Z</time>
      </trkpt>
      <trkpt lat="44.44969" lon="6.06019">
        <ele>674.4</ele>
        <time>2020-09-05T12:58:50.000Z</time>
      </trkpt>
      <trkpt lat="44.45007" lon="6.0603">
        <ele>673.5</ele>
        <time>2020-09-05T12:58:56.000Z</time>
      </trkpt>
      <trkpt lat="44.45014" lon="6.06033">
        <ele>671.7</ele>
        <time>2020-09-05T12:58:59.000Z</time>
      </trkpt>
      <trkpt lat="44.45021" lon="6.0603">
        <ele>672.6</ele>
        <time>2020-09-05T12:59:02.000Z</time>
      </trkpt>
      <trkpt lat="44.45024" lon="6.06035">
        <ele>676.3</ele>
        <time>2020-09-05T12:59:17.000Z</time>
      </trkpt>
      <trkpt lat="44.45051" lon="6.06053">
        <ele>671.8</ele>
        <time>2020-09-05T12:59:26.000Z</time>
      </trkpt>
      <trkpt lat="44.45059" lon="6.06059">
        <ele>671.2</ele>
        <time>2020-09-05T12:59:29.000Z</time>
      </trkpt>
      <trkpt lat="44.45061" lon="6.06069">
        <ele>670.3</ele>
        <time>2020-09-05T12:59:35.000Z</time>
      </trkpt>
      <trkpt lat="44.45067" lon="6.06083">
        <ele>669</ele>
        <time>2020-09-05T12:59:38.000Z</time>
      </trkpt>
      <trkpt lat="44.4508" lon="6.061">
        <ele>669.8</ele>
        <time>2020-09-05T12:59:42.338Z</time>
      </trkpt>
      <trkpt lat="44.45103" lon="6.06147">
        <ele>669.8</ele>
        <time>2020-09-05T12:59:47.000Z</time>
      </trkpt>
      <trkpt lat="44.45122" lon="6.06183">
        <ele>673.5</ele>
        <time>2020-09-05T12:59:50.000Z</time>
      </trkpt>
      <trkpt lat="44.45134" lon="6.06218">
        <ele>676.2</ele>
        <time>2020-09-05T12:59:53.000Z</time>
      </trkpt>
      <trkpt lat="44.45147" lon="6.06252">
        <ele>676.4</ele>
        <time>2020-09-05T12:59:56.000Z</time>
      </trkpt>
      <trkpt lat="44.45162" lon="6.0628">
        <ele>678.4</ele>
        <time>2020-09-05T12:59:59.000Z</time>
      </trkpt>
      <trkpt lat="44.45199" lon="6.06301">
        <ele>685.1</ele>
        <time>2020-09-05T13:00:05.000Z</time>
      </trkpt>
      <trkpt lat="44.45232" lon="6.06326">
        <ele>686.7</ele>
        <time>2020-09-05T13:00:11.000Z</time>
      </trkpt>
      <trkpt lat="44.45247" lon="6.06337">
        <ele>686.7</ele>
        <time>2020-09-05T13:00:14.000Z</time>
      </trkpt>
      <trkpt lat="44.4524" lon="6.06359">
        <ele>686.8</ele>
        <time>2020-09-05T13:00:19.332Z</time>
      </trkpt>
      <trkpt lat="44.45248" lon="6.06374">
        <ele>688.7</ele>
        <time>2020-09-05T13:00:23.000Z</time>
      </trkpt>
      <trkpt lat="44.4526" lon="6.06392">
        <ele>687.4</ele>
        <time>2020-09-05T13:00:26.000Z</time>
      </trkpt>
      <trkpt lat="44.45287" lon="6.06433">
        <ele>693.2</ele>
        <time>2020-09-05T13:00:32.000Z</time>
      </trkpt>
      <trkpt lat="44.45297" lon="6.06483">
        <ele>697</ele>
        <time>2020-09-05T13:00:38.000Z</time>
      </trkpt>
      <trkpt lat="44.45318" lon="6.06524">
        <ele>696.7</ele>
        <time>2020-09-05T13:00:44.000Z</time>
      </trkpt>
      <trkpt lat="44.45324" lon="6.06528">
        <ele>698.9</ele>
        <time>2020-09-05T13:00:47.000Z</time>
      </trkpt>
      <trkpt lat="44.45315" lon="6.06536">
        <ele>701.8</ele>
        <time>2020-09-05T13:00:53.000Z</time>
      </trkpt>
      <trkpt lat="44.45308" lon="6.06555">
        <ele>701.5</ele>
        <time>2020-09-05T13:00:56.000Z</time>
      </trkpt>
      <trkpt lat="44.45312" lon="6.06592">
        <ele>704.6</ele>
        <time>2020-09-05T13:01:02.000Z</time>
      </trkpt>
      <trkpt lat="44.45331" lon="6.06649">
        <ele>709.2</ele>
        <time>2020-09-05T13:01:08.000Z</time>
      </trkpt>
      <trkpt lat="44.45338" lon="6.06661">
        <ele>711.4</ele>
        <time>2020-09-05T13:01:13.321Z</time>
      </trkpt>
      <trkpt lat="44.45328" lon="6.06673">
        <ele>713.5</ele>
        <time>2020-09-05T13:01:17.000Z</time>
      </trkpt>
      <trkpt lat="44.4533" lon="6.06692">
        <ele>713.1</ele>
        <time>2020-09-05T13:01:20.000Z</time>
      </trkpt>
      <trkpt lat="44.45332" lon="6.06702">
        <ele>713.2</ele>
        <time>2020-09-05T13:01:23.382Z</time>
      </trkpt>
      <trkpt lat="44.45338" lon="6.06717">
        <ele>714.6</ele>
        <time>2020-09-05T13:01:28.366Z</time>
      </trkpt>
      <trkpt lat="44.45345" lon="6.06733">
        <ele>716.9</ele>
        <time>2020-09-05T13:01:32.000Z</time>
      </trkpt>
      <trkpt lat="44.45347" lon="6.06739">
        <ele>718</ele>
        <time>2020-09-05T13:01:35.000Z</time>
      </trkpt>
      <trkpt lat="44.45345" lon="6.06732">
        <ele>718.3</ele>
        <time>2020-09-05T13:01:43.401Z</time>
      </trkpt>
      <trkpt lat="44.45353" lon="6.06724">
        <ele>722.1</ele>
        <time>2020-09-05T13:02:32.000Z</time>
      </trkpt>
      <trkpt lat="44.45361" lon="6.06736">
        <ele>721.9</ele>
        <time>2020-09-05T13:02:35.000Z</time>
      </trkpt>
      <trkpt lat="44.45395" lon="6.06792">
        <ele>723.8</ele>
        <time>2020-09-05T13:02:41.000Z</time>
      </trkpt>
      <trkpt lat="44.45442" lon="6.06816">
        <ele>717.9</ele>
        <time>2020-09-05T13:02:47.000Z</time>
      </trkpt>
      <trkpt lat="44.45472" lon="6.06813">
        <ele>713.6</ele>
        <time>2020-09-05T13:02:50.000Z</time>
      </trkpt>
      <trkpt lat="44.45503" lon="6.06802">
        <ele>710.8</ele>
        <time>2020-09-05T13:02:53.000Z</time>
      </trkpt>
      <trkpt lat="44.45561" lon="6.06781">
        <ele>708.6</ele>
        <time>2020-09-05T13:02:59.000Z</time>
      </trkpt>
      <trkpt lat="44.45603" lon="6.0675">
        <ele>706.4</ele>
        <time>2020-09-05T13:03:05.000Z</time>
      </trkpt>
      <trkpt lat="44.45624" lon="6.0673">
        <ele>703.9</ele>
        <time>2020-09-05T13:03:08.000Z</time>
      </trkpt>
      <trkpt lat="44.45668" lon="6.06685">
        <ele>699.4</ele>
        <time>2020-09-05T13:03:14.000Z</time>
      </trkpt>
      <trkpt lat="44.45689" lon="6.06665">
        <ele>696.4</ele>
        <time>2020-09-05T13:03:17.000Z</time>
      </trkpt>
      <trkpt lat="44.4572" lon="6.06663">
        <ele>694.4</ele>
        <time>2020-09-05T13:03:23.000Z</time>
      </trkpt>
      <trkpt lat="44.45723" lon="6.06679">
        <ele>694.5</ele>
        <time>2020-09-05T13:03:26.000Z</time>
      </trkpt>
      <trkpt lat="44.45733" lon="6.067">
        <ele>696.9</ele>
        <time>2020-09-05T13:03:29.000Z</time>
      </trkpt>
      <trkpt lat="44.45736" lon="6.06744">
        <ele>694.4</ele>
        <time>2020-09-05T13:03:35.000Z</time>
      </trkpt>
      <trkpt lat="44.45748" lon="6.068">
        <ele>694.3</ele>
        <time>2020-09-05T13:03:41.000Z</time>
      </trkpt>
      <trkpt lat="44.45761" lon="6.06812">
        <ele>697.1</ele>
        <time>2020-09-05T13:03:44.000Z</time>
      </trkpt>
      <trkpt lat="44.4578" lon="6.06824">
        <ele>700.1</ele>
        <time>2020-09-05T13:03:47.000Z</time>
      </trkpt>
      <trkpt lat="44.45791" lon="6.06844">
        <ele>701.7</ele>
        <time>2020-09-05T13:03:50.000Z</time>
      </trkpt>
      <trkpt lat="44.45803" lon="6.0688">
        <ele>705.2</ele>
        <time>2020-09-05T13:03:56.000Z</time>
      </trkpt>
      <trkpt lat="44.4581" lon="6.06889">
        <ele>705.3</ele>
        <time>2020-09-05T13:03:59.000Z</time>
      </trkpt>
      <trkpt lat="44.45836" lon="6.06909">
        <ele>706.5</ele>
        <time>2020-09-05T13:04:05.000Z</time>
      </trkpt>
      <trkpt lat="44.45848" lon="6.06927">
        <ele>706.8</ele>
        <time>2020-09-05T13:04:08.000Z</time>
      </trkpt>
      <trkpt lat="44.45861" lon="6.06943">
        <ele>708.3</ele>
        <time>2020-09-05T13:04:11.000Z</time>
      </trkpt>
      <trkpt lat="44.45878" lon="6.06952">
        <ele>711.3</ele>
        <time>2020-09-05T13:04:14.000Z</time>
      </trkpt>
      <trkpt lat="44.4589" lon="6.06956">
        <ele>712.4</ele>
        <time>2020-09-05T13:04:17.000Z</time>
      </trkpt>
      <trkpt lat="44.45904" lon="6.06938">
        <ele>715.6</ele>
        <time>2020-09-05T13:05:30.699Z</time>
      </trkpt>
      <trkpt lat="44.45916" lon="6.06902">
        <ele>695</ele>
        <time>2020-09-05T13:05:35.000Z</time>
      </trkpt>
      <trkpt lat="44.45928" lon="6.06904">
        <ele>690.6</ele>
        <time>2020-09-05T13:05:39.468Z</time>
      </trkpt>
      <trkpt lat="44.4592" lon="6.06915">
        <ele>686.6</ele>
        <time>2020-09-05T13:05:43.420Z</time>
      </trkpt>
      <trkpt lat="44.45933" lon="6.06891">
        <ele>691.2</ele>
        <time>2020-09-05T13:05:46.479Z</time>
      </trkpt>
      <trkpt lat="44.45947" lon="6.0684">
        <ele>700.8</ele>
        <time>2020-09-05T13:05:50.000Z</time>
      </trkpt>
      <trkpt lat="44.45959" lon="6.0681">
        <ele>698.4</ele>
        <time>2020-09-05T13:05:53.000Z</time>
      </trkpt>
      <trkpt lat="44.45986" lon="6.06746">
        <ele>687.3</ele>
        <time>2020-09-05T13:05:59.000Z</time>
      </trkpt>
      <trkpt lat="44.46003" lon="6.06679">
        <ele>682.9</ele>
        <time>2020-09-05T13:06:05.000Z</time>
      </trkpt>
      <trkpt lat="44.46003" lon="6.06635">
        <ele>677.1</ele>
        <time>2020-09-05T13:06:08.000Z</time>
      </trkpt>
      <trkpt lat="44.46007" lon="6.06561">
        <ele>676.4</ele>
        <time>2020-09-05T13:06:14.000Z</time>
      </trkpt>
      <trkpt lat="44.4602" lon="6.06501">
        <ele>676.2</ele>
        <time>2020-09-05T13:06:20.000Z</time>
      </trkpt>
      <trkpt lat="44.46029" lon="6.06515">
        <ele>673.1</ele>
        <time>2020-09-05T13:06:26.000Z</time>
      </trkpt>
      <trkpt lat="44.46027" lon="6.06524">
        <ele>672</ele>
        <time>2020-09-05T13:06:32.000Z</time>
      </trkpt>
      <trkpt lat="44.46072" lon="6.06545">
        <ele>667.4</ele>
        <time>2020-09-05T13:09:35.000Z</time>
      </trkpt>
      <trkpt lat="44.46106" lon="6.06568">
        <ele>667.1</ele>
        <time>2020-09-05T13:09:38.000Z</time>
      </trkpt>
      <trkpt lat="44.46165" lon="6.06651">
        <ele>672.9</ele>
        <time>2020-09-05T13:09:44.000Z</time>
      </trkpt>
      <trkpt lat="44.46197" lon="6.06756">
        <ele>674.9</ele>
        <time>2020-09-05T13:09:50.000Z</time>
      </trkpt>
      <trkpt lat="44.46222" lon="6.06805">
        <ele>674.8</ele>
        <time>2020-09-05T13:09:53.000Z</time>
      </trkpt>
      <trkpt lat="44.46288" lon="6.06895">
        <ele>675.9</ele>
        <time>2020-09-05T13:09:59.000Z</time>
      </trkpt>
      <trkpt lat="44.46296" lon="6.06948">
        <ele>679.3</ele>
        <time>2020-09-05T13:10:02.000Z</time>
      </trkpt>
      <trkpt lat="44.46308" lon="6.07041">
        <ele>663.8</ele>
        <time>2020-09-05T13:10:08.000Z</time>
      </trkpt>
      <trkpt lat="44.46346" lon="6.07073">
        <ele>661.2</ele>
        <time>2020-09-05T13:10:11.000Z</time>
      </trkpt>
      <trkpt lat="44.4642" lon="6.07147">
        <ele>655.5</ele>
        <time>2020-09-05T13:10:17.000Z</time>
      </trkpt>
      <trkpt lat="44.46441" lon="6.07201">
        <ele>655.2</ele>
        <time>2020-09-05T13:10:20.000Z</time>
      </trkpt>
      <trkpt lat="44.46461" lon="6.07344">
        <ele>654</ele>
        <time>2020-09-05T13:10:26.000Z</time>
      </trkpt>
      <trkpt lat="44.46504" lon="6.07472">
        <ele>649.1</ele>
        <time>2020-09-05T13:10:32.000Z</time>
      </trkpt>
      <trkpt lat="44.46529" lon="6.07525">
        <ele>646.3</ele>
        <time>2020-09-05T13:10:35.000Z</time>
      </trkpt>
      <trkpt lat="44.46596" lon="6.07625">
        <ele>646</ele>
        <time>2020-09-05T13:10:41.000Z</time>
      </trkpt>
      <trkpt lat="44.46641" lon="6.07669">
        <ele>646.4</ele>
        <time>2020-09-05T13:10:44.000Z</time>
      </trkpt>
      <trkpt lat="44.46747" lon="6.07754">
        <ele>643.3</ele>
        <time>2020-09-05T13:10:50.000Z</time>
      </trkpt>
      <trkpt lat="44.46797" lon="6.07794">
        <ele>643</ele>
        <time>2020-09-05T13:10:53.000Z</time>
      </trkpt>
      <trkpt lat="44.4684" lon="6.07857">
        <ele>649.5</ele>
        <time>2020-09-05T13:10:59.000Z</time>
      </trkpt>
      <trkpt lat="44.46849" lon="6.07879">
        <ele>652.2</ele>
        <time>2020-09-05T13:11:02.000Z</time>
      </trkpt>
      <trkpt lat="44.46895" lon="6.0785">
        <ele>654.3</ele>
        <time>2020-09-05T13:11:08.000Z</time>
      </trkpt>
      <trkpt lat="44.46929" lon="6.07905">
        <ele>657.1</ele>
        <time>2020-09-05T13:11:14.000Z</time>
      </trkpt>
      <trkpt lat="44.46953" lon="6.07947">
        <ele>659.3</ele>
        <time>2020-09-05T13:11:17.000Z</time>
      </trkpt>
      <trkpt lat="44.46995" lon="6.08027">
        <ele>661</ele>
        <time>2020-09-05T13:11:23.000Z</time>
      </trkpt>
      <trkpt lat="44.47018" lon="6.08074">
        <ele>660.8</ele>
        <time>2020-09-05T13:11:26.000Z</time>
      </trkpt>
      <trkpt lat="44.4707" lon="6.08177">
        <ele>664.1</ele>
        <time>2020-09-05T13:11:32.000Z</time>
      </trkpt>
      <trkpt lat="44.47089" lon="6.08234">
        <ele>665.2</ele>
        <time>2020-09-05T13:11:35.000Z</time>
      </trkpt>
      <trkpt lat="44.47107" lon="6.08293">
        <ele>666.1</ele>
        <time>2020-09-05T13:11:38.000Z</time>
      </trkpt>
      <trkpt lat="44.47129" lon="6.08355">
        <ele>667.4</ele>
        <time>2020-09-05T13:11:41.000Z</time>
      </trkpt>
      <trkpt lat="44.47171" lon="6.08492">
        <ele>668.2</ele>
        <time>2020-09-05T13:11:47.000Z</time>
      </trkpt>
      <trkpt lat="44.47184" lon="6.0857">
        <ele>669</ele>
        <time>2020-09-05T13:11:50.000Z</time>
      </trkpt>
      <trkpt lat="44.47196" lon="6.08727">
        <ele>672.4</ele>
        <time>2020-09-05T13:11:56.000Z</time>
      </trkpt>
      <trkpt lat="44.47197" lon="6.08856">
        <ele>669</ele>
        <time>2020-09-05T13:12:02.000Z</time>
      </trkpt>
      <trkpt lat="44.47199" lon="6.08916">
        <ele>671.2</ele>
        <time>2020-09-05T13:12:05.000Z</time>
      </trkpt>
      <trkpt lat="44.47177" lon="6.08993">
        <ele>680.4</ele>
        <time>2020-09-05T13:12:11.000Z</time>
      </trkpt>
      <trkpt lat="44.47152" lon="6.09025">
        <ele>683.3</ele>
        <time>2020-09-05T13:12:14.000Z</time>
      </trkpt>
      <trkpt lat="44.47131" lon="6.09119">
        <ele>681.1</ele>
        <time>2020-09-05T13:12:20.000Z</time>
      </trkpt>
      <trkpt lat="44.47152" lon="6.09224">
        <ele>672.3</ele>
        <time>2020-09-05T13:12:26.000Z</time>
      </trkpt>
      <trkpt lat="44.4715" lon="6.09326">
        <ele>682.7</ele>
        <time>2020-09-05T13:12:32.000Z</time>
      </trkpt>
      <trkpt lat="44.47137" lon="6.09377">
        <ele>687.1</ele>
        <time>2020-09-05T13:12:35.000Z</time>
      </trkpt>
      <trkpt lat="44.47124" lon="6.0943">
        <ele>688.4</ele>
        <time>2020-09-05T13:12:38.000Z</time>
      </trkpt>
      <trkpt lat="44.47112" lon="6.09484">
        <ele>689.2</ele>
        <time>2020-09-05T13:12:41.000Z</time>
      </trkpt>
      <trkpt lat="44.47103" lon="6.09613">
        <ele>697.5</ele>
        <time>2020-09-05T13:12:47.000Z</time>
      </trkpt>
      <trkpt lat="44.47094" lon="6.09684">
        <ele>700.4</ele>
        <time>2020-09-05T13:12:50.000Z</time>
      </trkpt>
      <trkpt lat="44.47076" lon="6.09753">
        <ele>697.3</ele>
        <time>2020-09-05T13:12:53.000Z</time>
      </trkpt>
      <trkpt lat="44.47056" lon="6.09822">
        <ele>703.2</ele>
        <time>2020-09-05T13:12:56.000Z</time>
      </trkpt>
      <trkpt lat="44.47004" lon="6.09914">
        <ele>703.3</ele>
        <time>2020-09-05T13:13:02.000Z</time>
      </trkpt>
      <trkpt lat="44.46983" lon="6.09957">
        <ele>705.8</ele>
        <time>2020-09-05T13:13:05.000Z</time>
      </trkpt>
      <trkpt lat="44.46993" lon="6.10028">
        <ele>712.6</ele>
        <time>2020-09-05T13:13:11.000Z</time>
      </trkpt>
      <trkpt lat="44.46982" lon="6.10075">
        <ele>717.8</ele>
        <time>2020-09-05T13:13:14.000Z</time>
      </trkpt>
      <trkpt lat="44.46936" lon="6.10194">
        <ele>721.5</ele>
        <time>2020-09-05T13:13:20.000Z</time>
      </trkpt>
      <trkpt lat="44.46909" lon="6.10332">
        <ele>720.1</ele>
        <time>2020-09-05T13:13:26.000Z</time>
      </trkpt>
      <trkpt lat="44.46907" lon="6.10511">
        <ele>719.3</ele>
        <time>2020-09-05T13:13:32.000Z</time>
      </trkpt>
      <trkpt lat="44.46911" lon="6.10607">
        <ele>733.5</ele>
        <time>2020-09-05T13:13:35.000Z</time>
      </trkpt>
      <trkpt lat="44.46902" lon="6.10676">
        <ele>739.1</ele>
        <time>2020-09-05T13:13:38.000Z</time>
      </trkpt>
      <trkpt lat="44.46879" lon="6.10755">
        <ele>742.5</ele>
        <time>2020-09-05T13:13:44.000Z</time>
      </trkpt>
      <trkpt lat="44.46921" lon="6.10714">
        <ele>755.7</ele>
        <time>2020-09-05T13:13:50.000Z</time>
      </trkpt>
      <trkpt lat="44.46953" lon="6.10669">
        <ele>756.5</ele>
        <time>2020-09-05T13:13:53.000Z</time>
      </trkpt>
      <trkpt lat="44.46976" lon="6.1064">
        <ele>757.9</ele>
        <time>2020-09-05T13:13:56.000Z</time>
      </trkpt>
      <trkpt lat="44.46991" lon="6.10575">
        <ele>759.1</ele>
        <time>2020-09-05T13:14:02.000Z</time>
      </trkpt>
      <trkpt lat="44.47006" lon="6.10515">
        <ele>758.6</ele>
        <time>2020-09-05T13:14:08.000Z</time>
      </trkpt>
      <trkpt lat="44.47054" lon="6.10533">
        <ele>762.3</ele>
        <time>2020-09-05T13:14:11.000Z</time>
      </trkpt>
      <trkpt lat="44.47085" lon="6.1056">
        <ele>757.2</ele>
        <time>2020-09-05T13:14:14.000Z</time>
      </trkpt>
      <trkpt lat="44.4713" lon="6.10621">
        <ele>754.1</ele>
        <time>2020-09-05T13:14:20.000Z</time>
      </trkpt>
      <trkpt lat="44.47146" lon="6.10656">
        <ele>753.8</ele>
        <time>2020-09-05T13:14:23.000Z</time>
      </trkpt>
      <trkpt lat="44.4716" lon="6.10713">
        <ele>746.4</ele>
        <time>2020-09-05T13:14:29.000Z</time>
      </trkpt>
      <trkpt lat="44.47124" lon="6.10754">
        <ele>734.3</ele>
        <time>2020-09-05T13:14:35.000Z</time>
      </trkpt>
      <trkpt lat="44.47083" lon="6.10836">
        <ele>734.1</ele>
        <time>2020-09-05T13:14:41.000Z</time>
      </trkpt>
      <trkpt lat="44.47068" lon="6.10875">
        <ele>728.7</ele>
        <time>2020-09-05T13:14:44.000Z</time>
      </trkpt>
      <trkpt lat="44.4705" lon="6.10956">
        <ele>719.9</ele>
        <time>2020-09-05T13:14:50.000Z</time>
      </trkpt>
      <trkpt lat="44.47051" lon="6.10999">
        <ele>719.1</ele>
        <time>2020-09-05T13:14:53.000Z</time>
      </trkpt>
      <trkpt lat="44.47053" lon="6.11039">
        <ele>720.9</ele>
        <time>2020-09-05T13:14:56.000Z</time>
      </trkpt>
      <trkpt lat="44.47064" lon="6.11109">
        <ele>707.9</ele>
        <time>2020-09-05T13:15:02.000Z</time>
      </trkpt>
      <trkpt lat="44.47071" lon="6.1118">
        <ele>709.9</ele>
        <time>2020-09-05T13:15:08.000Z</time>
      </trkpt>
      <trkpt lat="44.47071" lon="6.11218">
        <ele>712.2</ele>
        <time>2020-09-05T13:15:11.000Z</time>
      </trkpt>
      <trkpt lat="44.47061" lon="6.11277">
        <ele>709.4</ele>
        <time>2020-09-05T13:15:17.000Z</time>
      </trkpt>
      <trkpt lat="44.47119" lon="6.11271">
        <ele>698.3</ele>
        <time>2020-09-05T13:15:23.000Z</time>
      </trkpt>
      <trkpt lat="44.47226" lon="6.11246">
        <ele>691.8</ele>
        <time>2020-09-05T13:15:29.000Z</time>
      </trkpt>
      <trkpt lat="44.47281" lon="6.11235">
        <ele>688.7</ele>
        <time>2020-09-05T13:15:33.394Z</time>
      </trkpt>
      <trkpt lat="44.4736" lon="6.11223">
        <ele>680.6</ele>
        <time>2020-09-05T13:15:38.000Z</time>
      </trkpt>
      <trkpt lat="44.47411" lon="6.11217">
        <ele>681.7</ele>
        <time>2020-09-05T13:15:41.000Z</time>
      </trkpt>
      <trkpt lat="44.47457" lon="6.11211">
        <ele>681.7</ele>
        <time>2020-09-05T13:15:44.000Z</time>
      </trkpt>
      <trkpt lat="44.47466" lon="6.11256">
        <ele>672.9</ele>
        <time>2020-09-05T13:15:50.000Z</time>
      </trkpt>
      <trkpt lat="44.47463" lon="6.11297">
        <ele>674.7</ele>
        <time>2020-09-05T13:15:53.000Z</time>
      </trkpt>
      <trkpt lat="44.47455" lon="6.11352">
        <ele>672.7</ele>
        <time>2020-09-05T13:15:56.000Z</time>
      </trkpt>
      <trkpt lat="44.47437" lon="6.11465">
        <ele>670.9</ele>
        <time>2020-09-05T13:16:02.000Z</time>
      </trkpt>
      <trkpt lat="44.47417" lon="6.11539">
        <ele>670.3</ele>
        <time>2020-09-05T13:16:08.000Z</time>
      </trkpt>
      <trkpt lat="44.47409" lon="6.11549">
        <ele>662.8</ele>
        <time>2020-09-05T13:16:11.000Z</time>
      </trkpt>
      <trkpt lat="44.47392" lon="6.11562">
        <ele>664.6</ele>
        <time>2020-09-05T13:16:17.000Z</time>
      </trkpt>
      <trkpt lat="44.47379" lon="6.11586">
        <ele>662</ele>
        <time>2020-09-05T13:16:20.000Z</time>
      </trkpt>
      <trkpt lat="44.47357" lon="6.1162">
        <ele>658</ele>
        <time>2020-09-05T13:16:23.000Z</time>
      </trkpt>
      <trkpt lat="44.47335" lon="6.11655">
        <ele>660.5</ele>
        <time>2020-09-05T13:16:26.000Z</time>
      </trkpt>
      <trkpt lat="44.47313" lon="6.11692">
        <ele>658</ele>
        <time>2020-09-05T13:16:29.000Z</time>
      </trkpt>
      <trkpt lat="44.47268" lon="6.11763">
        <ele>655.9</ele>
        <time>2020-09-05T13:16:35.000Z</time>
      </trkpt>
      <trkpt lat="44.47243" lon="6.11799">
        <ele>659.2</ele>
        <time>2020-09-05T13:16:38.000Z</time>
      </trkpt>
      <trkpt lat="44.47198" lon="6.11871">
        <ele>663.6</ele>
        <time>2020-09-05T13:16:44.000Z</time>
      </trkpt>
      <trkpt lat="44.47176" lon="6.1191">
        <ele>664.6</ele>
        <time>2020-09-05T13:16:47.000Z</time>
      </trkpt>
      <trkpt lat="44.47138" lon="6.11994">
        <ele>662.6</ele>
        <time>2020-09-05T13:16:53.000Z</time>
      </trkpt>
      <trkpt lat="44.47084" lon="6.12061">
        <ele>662.8</ele>
        <time>2020-09-05T13:16:59.000Z</time>
      </trkpt>
      <trkpt lat="44.47027" lon="6.12136">
        <ele>662.5</ele>
        <time>2020-09-05T13:17:05.000Z</time>
      </trkpt>
      <trkpt lat="44.46972" lon="6.12207">
        <ele>664.4</ele>
        <time>2020-09-05T13:17:11.000Z</time>
      </trkpt>
      <trkpt lat="44.46922" lon="6.12267">
        <ele>662.2</ele>
        <time>2020-09-05T13:17:17.000Z</time>
      </trkpt>
      <trkpt lat="44.46876" lon="6.12343">
        <ele>664</ele>
        <time>2020-09-05T13:17:23.000Z</time>
      </trkpt>
      <trkpt lat="44.46849" lon="6.12388">
        <ele>665</ele>
        <time>2020-09-05T13:17:26.000Z</time>
      </trkpt>
      <trkpt lat="44.46791" lon="6.12492">
        <ele>666.5</ele>
        <time>2020-09-05T13:17:32.000Z</time>
      </trkpt>
      <trkpt lat="44.46765" lon="6.12534">
        <ele>665.5</ele>
        <time>2020-09-05T13:17:35.000Z</time>
      </trkpt>
      <trkpt lat="44.46739" lon="6.12585">
        <ele>662.5</ele>
        <time>2020-09-05T13:17:41.000Z</time>
      </trkpt>
      <trkpt lat="44.46752" lon="6.12588">
        <ele>662.1</ele>
        <time>2020-09-05T13:17:44.000Z</time>
      </trkpt>
      <trkpt lat="44.46759" lon="6.12584">
        <ele>662.6</ele>
        <time>2020-09-05T13:17:49.341Z</time>
      </trkpt>
      <trkpt lat="44.4675" lon="6.12571">
        <ele>664.4</ele>
        <time>2020-09-05T13:17:53.000Z</time>
      </trkpt>
      <trkpt lat="44.46732" lon="6.12568">
        <ele>665.4</ele>
        <time>2020-09-05T13:17:56.000Z</time>
      </trkpt>
      <trkpt lat="44.46709" lon="6.12581">
        <ele>666.1</ele>
        <time>2020-09-05T13:17:59.000Z</time>
      </trkpt>
      <trkpt lat="44.46662" lon="6.1263">
        <ele>665.1</ele>
        <time>2020-09-05T13:18:02.975Z</time>
      </trkpt>
      <trkpt lat="44.46628" lon="6.12686">
        <ele>669.7</ele>
        <time>2020-09-05T13:18:08.000Z</time>
      </trkpt>
      <trkpt lat="44.46625" lon="6.12703">
        <ele>673</ele>
        <time>2020-09-05T13:18:11.000Z</time>
      </trkpt>
      <trkpt lat="44.46605" lon="6.12741">
        <ele>674.4</ele>
        <time>2020-09-05T13:18:17.000Z</time>
      </trkpt>
      <trkpt lat="44.46584" lon="6.12782">
        <ele>672.7</ele>
        <time>2020-09-05T13:18:20.000Z</time>
      </trkpt>
      <trkpt lat="44.46567" lon="6.12823">
        <ele>672.2</ele>
        <time>2020-09-05T13:18:23.000Z</time>
      </trkpt>
      <trkpt lat="44.46527" lon="6.12902">
        <ele>672</ele>
        <time>2020-09-05T13:18:29.000Z</time>
      </trkpt>
      <trkpt lat="44.46501" lon="6.1294">
        <ele>664.6</ele>
        <time>2020-09-05T13:18:35.000Z</time>
      </trkpt>
      <trkpt lat="44.46496" lon="6.1298">
        <ele>668.4</ele>
        <time>2020-09-05T13:18:38.000Z</time>
      </trkpt>
      <trkpt lat="44.46487" lon="6.13058">
        <ele>670</ele>
        <time>2020-09-05T13:18:44.000Z</time>
      </trkpt>
      <trkpt lat="44.46482" lon="6.131">
        <ele>669.9</ele>
        <time>2020-09-05T13:18:47.000Z</time>
      </trkpt>
      <trkpt lat="44.46482" lon="6.13189">
        <ele>660.3</ele>
        <time>2020-09-05T13:18:53.000Z</time>
      </trkpt>
      <trkpt lat="44.46496" lon="6.1323">
        <ele>666.1</ele>
        <time>2020-09-05T13:18:56.000Z</time>
      </trkpt>
      <trkpt lat="44.4653" lon="6.13296">
        <ele>665.8</ele>
        <time>2020-09-05T13:19:02.000Z</time>
      </trkpt>
      <trkpt lat="44.46568" lon="6.13359">
        <ele>667</ele>
        <time>2020-09-05T13:19:08.000Z</time>
      </trkpt>
      <trkpt lat="44.4659" lon="6.13386">
        <ele>673.1</ele>
        <time>2020-09-05T13:19:11.000Z</time>
      </trkpt>
      <trkpt lat="44.46621" lon="6.13446">
        <ele>671.9</ele>
        <time>2020-09-05T13:19:17.000Z</time>
      </trkpt>
      <trkpt lat="44.46625" lon="6.13469">
        <ele>663.4</ele>
        <time>2020-09-05T13:19:20.000Z</time>
      </trkpt>
      <trkpt lat="44.46637" lon="6.13506">
        <ele>664.4</ele>
        <time>2020-09-05T13:19:26.000Z</time>
      </trkpt>
      <trkpt lat="44.46652" lon="6.13563">
        <ele>664.4</ele>
        <time>2020-09-05T13:19:32.000Z</time>
      </trkpt>
      <trkpt lat="44.46648" lon="6.13613">
        <ele>665.2</ele>
        <time>2020-09-05T13:19:35.000Z</time>
      </trkpt>
      <trkpt lat="44.46645" lon="6.13679">
        <ele>657</ele>
        <time>2020-09-05T13:19:41.000Z</time>
      </trkpt>
      <trkpt lat="44.4664" lon="6.13698">
        <ele>656.8</ele>
        <time>2020-09-05T13:19:44.000Z</time>
      </trkpt>
      <trkpt lat="44.4662" lon="6.13717">
        <ele>662.7</ele>
        <time>2020-09-05T13:19:47.000Z</time>
      </trkpt>
      <trkpt lat="44.466" lon="6.13758">
        <ele>669.1</ele>
        <time>2020-09-05T13:19:50.000Z</time>
      </trkpt>
      <trkpt lat="44.4656" lon="6.13861">
        <ele>670.6</ele>
        <time>2020-09-05T13:19:56.000Z</time>
      </trkpt>
      <trkpt lat="44.46544" lon="6.13902">
        <ele>664.9</ele>
        <time>2020-09-05T13:19:59.000Z</time>
      </trkpt>
      <trkpt lat="44.46533" lon="6.13938">
        <ele>664</ele>
        <time>2020-09-05T13:20:02.000Z</time>
      </trkpt>
      <trkpt lat="44.46499" lon="6.13992">
        <ele>662.8</ele>
        <time>2020-09-05T13:20:08.000Z</time>
      </trkpt>
      <trkpt lat="44.46446" lon="6.14047">
        <ele>665.8</ele>
        <time>2020-09-05T13:20:14.000Z</time>
      </trkpt>
      <trkpt lat="44.46432" lon="6.14082">
        <ele>665.9</ele>
        <time>2020-09-05T13:20:17.000Z</time>
      </trkpt>
      <trkpt lat="44.46427" lon="6.1414">
        <ele>669.7</ele>
        <time>2020-09-05T13:20:23.000Z</time>
      </trkpt>
      <trkpt lat="44.4643" lon="6.14174">
        <ele>673.4</ele>
        <time>2020-09-05T13:20:29.000Z</time>
      </trkpt>
      <trkpt lat="44.46432" lon="6.14189">
        <ele>672.4</ele>
        <time>2020-09-05T13:20:32.000Z</time>
      </trkpt>
      <trkpt lat="44.46425" lon="6.14221">
        <ele>674.7</ele>
        <time>2020-09-05T13:20:38.000Z</time>
      </trkpt>
      <trkpt lat="44.46421" lon="6.14234">
        <ele>674.6</ele>
        <time>2020-09-05T13:20:41.000Z</time>
      </trkpt>
      <trkpt lat="44.46414" lon="6.14257">
        <ele>675.5</ele>
        <time>2020-09-05T13:20:44.000Z</time>
      </trkpt>
      <trkpt lat="44.46394" lon="6.14301">
        <ele>677.4</ele>
        <time>2020-09-05T13:20:50.000Z</time>
      </trkpt>
      <trkpt lat="44.46385" lon="6.14312">
        <ele>676.9</ele>
        <time>2020-09-05T13:20:54.121Z</time>
      </trkpt>
      <trkpt lat="44.46376" lon="6.14345">
        <ele>674.7</ele>
        <time>2020-09-05T13:20:59.000Z</time>
      </trkpt>
      <trkpt lat="44.46371" lon="6.14359">
        <ele>673.7</ele>
        <time>2020-09-05T13:21:02.000Z</time>
      </trkpt>
      <trkpt lat="44.46367" lon="6.14366">
        <ele>674.2</ele>
        <time>2020-09-05T13:21:05.460Z</time>
      </trkpt>
      <trkpt lat="44.46358" lon="6.14385">
        <ele>673.2</ele>
        <time>2020-09-05T13:21:10.482Z</time>
      </trkpt>
      <trkpt lat="44.46342" lon="6.14406">
        <ele>670.4</ele>
        <time>2020-09-05T13:21:14.000Z</time>
      </trkpt>
      <trkpt lat="44.4633" lon="6.14427">
        <ele>670.3</ele>
        <time>2020-09-05T13:21:17.000Z</time>
      </trkpt>
      <trkpt lat="44.46317" lon="6.14454">
        <ele>667.8</ele>
        <time>2020-09-05T13:21:20.000Z</time>
      </trkpt>
      <trkpt lat="44.463" lon="6.14519">
        <ele>666.4</ele>
        <time>2020-09-05T13:21:26.000Z</time>
      </trkpt>
      <trkpt lat="44.46301" lon="6.14574">
        <ele>666.7</ele>
        <time>2020-09-05T13:21:32.000Z</time>
      </trkpt>
      <trkpt lat="44.4631" lon="6.14603">
        <ele>668.4</ele>
        <time>2020-09-05T13:21:35.000Z</time>
      </trkpt>
      <trkpt lat="44.46325" lon="6.14636">
        <ele>670</ele>
        <time>2020-09-05T13:21:41.000Z</time>
      </trkpt>
      <trkpt lat="44.46331" lon="6.14666">
        <ele>669.1</ele>
        <time>2020-09-05T13:21:44.277Z</time>
      </trkpt>
      <trkpt lat="44.46318" lon="6.14743">
        <ele>671.3</ele>
        <time>2020-09-05T13:21:50.000Z</time>
      </trkpt>
      <trkpt lat="44.46307" lon="6.14784">
        <ele>672.3</ele>
        <time>2020-09-05T13:21:53.000Z</time>
      </trkpt>
      <trkpt lat="44.46298" lon="6.14811">
        <ele>672.7</ele>
        <time>2020-09-05T13:21:56.000Z</time>
      </trkpt>
      <trkpt lat="44.46292" lon="6.1484">
        <ele>674.2</ele>
        <time>2020-09-05T13:22:02.000Z</time>
      </trkpt>
      <trkpt lat="44.46275" lon="6.14877">
        <ele>675.6</ele>
        <time>2020-09-05T13:22:23.000Z</time>
      </trkpt>
      <trkpt lat="44.4626" lon="6.14916">
        <ele>673.1</ele>
        <time>2020-09-05T13:22:26.000Z</time>
      </trkpt>
      <trkpt lat="44.46227" lon="6.15012">
        <ele>680.2</ele>
        <time>2020-09-05T13:22:32.000Z</time>
      </trkpt>
      <trkpt lat="44.46221" lon="6.15069">
        <ele>679</ele>
        <time>2020-09-05T13:22:35.000Z</time>
      </trkpt>
      <trkpt lat="44.46222" lon="6.15101">
        <ele>677.4</ele>
        <time>2020-09-05T13:22:38.294Z</time>
      </trkpt>
      <trkpt lat="44.4622" lon="6.15115">
        <ele>678.5</ele>
        <time>2020-09-05T13:22:43.308Z</time>
      </trkpt>
      <trkpt lat="44.4621" lon="6.1518">
        <ele>676.1</ele>
        <time>2020-09-05T13:22:47.000Z</time>
      </trkpt>
      <trkpt lat="44.46206" lon="6.15213">
        <ele>678.9</ele>
        <time>2020-09-05T13:22:50.000Z</time>
      </trkpt>
      <trkpt lat="44.46205" lon="6.15231">
        <ele>682.5</ele>
        <time>2020-09-05T13:22:53.383Z</time>
      </trkpt>
      <trkpt lat="44.46207" lon="6.15223">
        <ele>682.1</ele>
        <time>2020-09-05T13:23:02.000Z</time>
      </trkpt>
      <trkpt lat="44.46207" lon="6.15232">
        <ele>679.3</ele>
        <time>2020-09-05T13:23:20.000Z</time>
      </trkpt>
      <trkpt lat="44.46206" lon="6.15264">
        <ele>683.5</ele>
        <time>2020-09-05T13:23:24.603Z</time>
      </trkpt>
      <trkpt lat="44.46202" lon="6.15352">
        <ele>679</ele>
        <time>2020-09-05T13:23:29.000Z</time>
      </trkpt>
      <trkpt lat="44.462" lon="6.15406">
        <ele>680</ele>
        <time>2020-09-05T13:23:32.000Z</time>
      </trkpt>
      <trkpt lat="44.46197" lon="6.15456">
        <ele>679.8</ele>
        <time>2020-09-05T13:23:35.000Z</time>
      </trkpt>
      <trkpt lat="44.46188" lon="6.15544">
        <ele>677.9</ele>
        <time>2020-09-05T13:23:41.000Z</time>
      </trkpt>
      <trkpt lat="44.46184" lon="6.15603">
        <ele>675.7</ele>
        <time>2020-09-05T13:23:44.000Z</time>
      </trkpt>
      <trkpt lat="44.46188" lon="6.15705">
        <ele>677.2</ele>
        <time>2020-09-05T13:23:50.000Z</time>
      </trkpt>
      <trkpt lat="44.46196" lon="6.1575">
        <ele>676.6</ele>
        <time>2020-09-05T13:23:53.000Z</time>
      </trkpt>
      <trkpt lat="44.46203" lon="6.15845">
        <ele>681.4</ele>
        <time>2020-09-05T13:23:59.000Z</time>
      </trkpt>
      <trkpt lat="44.46208" lon="6.15904">
        <ele>680.6</ele>
        <time>2020-09-05T13:24:02.000Z</time>
      </trkpt>
      <trkpt lat="44.46217" lon="6.15989">
        <ele>673.5</ele>
        <time>2020-09-05T13:24:08.000Z</time>
      </trkpt>
      <trkpt lat="44.4622" lon="6.16013">
        <ele>674.7</ele>
        <time>2020-09-05T13:24:11.000Z</time>
      </trkpt>
      <trkpt lat="44.46215" lon="6.15985">
        <ele>676.3</ele>
        <time>2020-09-05T13:24:20.000Z</time>
      </trkpt>
      <trkpt lat="44.46212" lon="6.1598">
        <ele>681.2</ele>
        <time>2020-09-05T13:24:29.000Z</time>
      </trkpt>
      <trkpt lat="44.46213" lon="6.15997">
        <ele>684</ele>
        <time>2020-09-05T13:24:47.000Z</time>
      </trkpt>
      <trkpt lat="44.46218" lon="6.16033">
        <ele>681.5</ele>
        <time>2020-09-05T13:24:50.000Z</time>
      </trkpt>
      <trkpt lat="44.46226" lon="6.1609">
        <ele>677.7</ele>
        <time>2020-09-05T13:24:53.000Z</time>
      </trkpt>
      <trkpt lat="44.46237" lon="6.16194">
        <ele>675.7</ele>
        <time>2020-09-05T13:24:59.000Z</time>
      </trkpt>
      <trkpt lat="44.46237" lon="6.16228">
        <ele>675.6</ele>
        <time>2020-09-05T13:25:02.000Z</time>
      </trkpt>
      <trkpt lat="44.46238" lon="6.16255">
        <ele>674.4</ele>
        <time>2020-09-05T13:25:05.000Z</time>
      </trkpt>
      <trkpt lat="44.46239" lon="6.16307">
        <ele>681.4</ele>
        <time>2020-09-05T13:25:11.000Z</time>
      </trkpt>
      <trkpt lat="44.46237" lon="6.16345">
        <ele>678.1</ele>
        <time>2020-09-05T13:25:14.000Z</time>
      </trkpt>
      <trkpt lat="44.46234" lon="6.16436">
        <ele>680</ele>
        <time>2020-09-05T13:25:20.000Z</time>
      </trkpt>
      <trkpt lat="44.4624" lon="6.16506">
        <ele>681</ele>
        <time>2020-09-05T13:25:26.000Z</time>
      </trkpt>
      <trkpt lat="44.46246" lon="6.1654">
        <ele>681.1</ele>
        <time>2020-09-05T13:25:29.000Z</time>
      </trkpt>
      <trkpt lat="44.46251" lon="6.1662">
        <ele>684.8</ele>
        <time>2020-09-05T13:25:35.000Z</time>
      </trkpt>
      <trkpt lat="44.46252" lon="6.16663">
        <ele>681.7</ele>
        <time>2020-09-05T13:25:38.000Z</time>
      </trkpt>
      <trkpt lat="44.46249" lon="6.16752">
        <ele>679.5</ele>
        <time>2020-09-05T13:25:44.000Z</time>
      </trkpt>
      <trkpt lat="44.46247" lon="6.16796">
        <ele>679.2</ele>
        <time>2020-09-05T13:25:47.000Z</time>
      </trkpt>
      <trkpt lat="44.46242" lon="6.16877">
        <ele>681.9</ele>
        <time>2020-09-05T13:25:53.000Z</time>
      </trkpt>
      <trkpt lat="44.4624" lon="6.16917">
        <ele>682.2</ele>
        <time>2020-09-05T13:25:56.000Z</time>
      </trkpt>
      <trkpt lat="44.4623" lon="6.1698">
        <ele>680.6</ele>
        <time>2020-09-05T13:26:02.000Z</time>
      </trkpt>
      <trkpt lat="44.46225" lon="6.17007">
        <ele>677</ele>
        <time>2020-09-05T13:26:05.000Z</time>
      </trkpt>
      <trkpt lat="44.46206" lon="6.17086">
        <ele>684.4</ele>
        <time>2020-09-05T13:26:11.000Z</time>
      </trkpt>
      <trkpt lat="44.46193" lon="6.17154">
        <ele>682.2</ele>
        <time>2020-09-05T13:26:17.000Z</time>
      </trkpt>
      <trkpt lat="44.46194" lon="6.1717">
        <ele>683.9</ele>
        <time>2020-09-05T13:26:20.000Z</time>
      </trkpt>
      <trkpt lat="44.46197" lon="6.1718">
        <ele>683.2</ele>
        <time>2020-09-05T13:26:25.379Z</time>
      </trkpt>
      <trkpt lat="44.46198" lon="6.1722">
        <ele>683.5</ele>
        <time>2020-09-05T13:26:29.000Z</time>
      </trkpt>
      <trkpt lat="44.46198" lon="6.17286">
        <ele>686</ele>
        <time>2020-09-05T13:26:35.000Z</time>
      </trkpt>
      <trkpt lat="44.46197" lon="6.17385">
        <ele>677.6</ele>
        <time>2020-09-05T13:26:41.000Z</time>
      </trkpt>
      <trkpt lat="44.46192" lon="6.17417">
        <ele>684.3</ele>
        <time>2020-09-05T13:26:44.000Z</time>
      </trkpt>
      <trkpt lat="44.46186" lon="6.17421">
        <ele>683.7</ele>
        <time>2020-09-05T13:26:47.000Z</time>
      </trkpt>
      <trkpt lat="44.46184" lon="6.17429">
        <ele>683.3</ele>
        <time>2020-09-05T13:26:53.000Z</time>
      </trkpt>
      <trkpt lat="44.46176" lon="6.17478">
        <ele>681.6</ele>
        <time>2020-09-05T13:26:59.000Z</time>
      </trkpt>
      <trkpt lat="44.4617" lon="6.17485">
        <ele>681.7</ele>
        <time>2020-09-05T13:27:04.261Z</time>
      </trkpt>
      <trkpt lat="44.46172" lon="6.17497">
        <ele>680.7</ele>
        <time>2020-09-05T13:27:08.000Z</time>
      </trkpt>
      <trkpt lat="44.46171" lon="6.17519">
        <ele>682.6</ele>
        <time>2020-09-05T13:27:11.000Z</time>
      </trkpt>
      <trkpt lat="44.46152" lon="6.17651">
        <ele>680.2</ele>
        <time>2020-09-05T13:27:17.000Z</time>
      </trkpt>
      <trkpt lat="44.46134" lon="6.17779">
        <ele>684.1</ele>
        <time>2020-09-05T13:27:23.000Z</time>
      </trkpt>
      <trkpt lat="44.46115" lon="6.17902">
        <ele>684.4</ele>
        <time>2020-09-05T13:27:29.000Z</time>
      </trkpt>
      <trkpt lat="44.46084" lon="6.17999">
        <ele>685.3</ele>
        <time>2020-09-05T13:27:35.000Z</time>
      </trkpt>
      <trkpt lat="44.46081" lon="6.18047">
        <ele>685.8</ele>
        <time>2020-09-05T13:27:38.000Z</time>
      </trkpt>
      <trkpt lat="44.46081" lon="6.18032">
        <ele>690.5</ele>
        <time>2020-09-05T13:27:50.000Z</time>
      </trkpt>
      <trkpt lat="44.46082" lon="6.18124">
        <ele>681</ele>
        <time>2020-09-05T13:28:17.000Z</time>
      </trkpt>
      <trkpt lat="44.46061" lon="6.18294">
        <ele>677.6</ele>
        <time>2020-09-05T13:28:23.000Z</time>
      </trkpt>
      <trkpt lat="44.46054" lon="6.18378">
        <ele>684.2</ele>
        <time>2020-09-05T13:28:26.000Z</time>
      </trkpt>
      <trkpt lat="44.46048" lon="6.1846">
        <ele>682</ele>
        <time>2020-09-05T13:28:29.722Z</time>
      </trkpt>
      <trkpt lat="44.46035" lon="6.18587">
        <ele>684.7</ele>
        <time>2020-09-05T13:28:35.000Z</time>
      </trkpt>
      <trkpt lat="44.46028" lon="6.18658">
        <ele>689</ele>
        <time>2020-09-05T13:28:38.000Z</time>
      </trkpt>
      <trkpt lat="44.4602" lon="6.18727">
        <ele>689.3</ele>
        <time>2020-09-05T13:28:41.000Z</time>
      </trkpt>
      <trkpt lat="44.46021" lon="6.18806">
        <ele>693.7</ele>
        <time>2020-09-05T13:28:47.000Z</time>
      </trkpt>
      <trkpt lat="44.46013" lon="6.18847">
        <ele>694.1</ele>
        <time>2020-09-05T13:28:50.000Z</time>
      </trkpt>
      <trkpt lat="44.46022" lon="6.18914">
        <ele>680.6</ele>
        <time>2020-09-05T13:28:56.000Z</time>
      </trkpt>
      <trkpt lat="44.46017" lon="6.19035">
        <ele>686.6</ele>
        <time>2020-09-05T13:29:02.000Z</time>
      </trkpt>
      <trkpt lat="44.46014" lon="6.19099">
        <ele>687.8</ele>
        <time>2020-09-05T13:29:05.000Z</time>
      </trkpt>
      <trkpt lat="44.46008" lon="6.1921">
        <ele>691.3</ele>
        <time>2020-09-05T13:29:11.000Z</time>
      </trkpt>
      <trkpt lat="44.46" lon="6.1927">
        <ele>694.6</ele>
        <time>2020-09-05T13:29:14.000Z</time>
      </trkpt>
      <trkpt lat="44.45995" lon="6.19331">
        <ele>695</ele>
        <time>2020-09-05T13:29:17.000Z</time>
      </trkpt>
      <trkpt lat="44.45995" lon="6.19445">
        <ele>689.7</ele>
        <time>2020-09-05T13:29:23.000Z</time>
      </trkpt>
      <trkpt lat="44.45989" lon="6.19553">
        <ele>683.1</ele>
        <time>2020-09-05T13:29:29.000Z</time>
      </trkpt>
      <trkpt lat="44.45983" lon="6.19616">
        <ele>682.9</ele>
        <time>2020-09-05T13:29:32.000Z</time>
      </trkpt>
      <trkpt lat="44.45965" lon="6.19718">
        <ele>689.3</ele>
        <time>2020-09-05T13:29:38.000Z</time>
      </trkpt>
      <trkpt lat="44.45926" lon="6.19757">
        <ele>693</ele>
        <time>2020-09-05T13:29:44.000Z</time>
      </trkpt>
      <trkpt lat="44.45921" lon="6.19838">
        <ele>693.8</ele>
        <time>2020-09-05T13:29:50.000Z</time>
      </trkpt>
      <trkpt lat="44.45923" lon="6.19858">
        <ele>694.4</ele>
        <time>2020-09-05T13:29:53.000Z</time>
      </trkpt>
      <trkpt lat="44.45961" lon="6.19859">
        <ele>681.2</ele>
        <time>2020-09-05T13:29:59.000Z</time>
      </trkpt>
      <trkpt lat="44.45987" lon="6.19856">
        <ele>680.1</ele>
        <time>2020-09-05T13:30:02.000Z</time>
      </trkpt>
      <trkpt lat="44.4601" lon="6.19855">
        <ele>685.7</ele>
        <time>2020-09-05T13:30:05.000Z</time>
      </trkpt>
      <trkpt lat="44.46025" lon="6.19858">
        <ele>686.6</ele>
        <time>2020-09-05T13:30:08.000Z</time>
      </trkpt>
      <trkpt lat="44.46047" lon="6.19858">
        <ele>689.7</ele>
        <time>2020-09-05T13:30:14.000Z</time>
      </trkpt>
      <trkpt lat="44.46052" lon="6.19885">
        <ele>687.9</ele>
        <time>2020-09-05T13:30:20.000Z</time>
      </trkpt>
      <trkpt lat="44.46049" lon="6.19956">
        <ele>682.9</ele>
        <time>2020-09-05T13:30:26.000Z</time>
      </trkpt>
      <trkpt lat="44.4605" lon="6.19991">
        <ele>683.6</ele>
        <time>2020-09-05T13:30:29.000Z</time>
      </trkpt>
      <trkpt lat="44.46053" lon="6.20082">
        <ele>687.4</ele>
        <time>2020-09-05T13:30:35.000Z</time>
      </trkpt>
      <trkpt lat="44.46073" lon="6.20244">
        <ele>687.4</ele>
        <time>2020-09-05T13:30:41.000Z</time>
      </trkpt>
      <trkpt lat="44.46071" lon="6.20392">
        <ele>688.7</ele>
        <time>2020-09-05T13:30:47.000Z</time>
      </trkpt>
      <trkpt lat="44.46072" lon="6.20474">
        <ele>688.1</ele>
        <time>2020-09-05T13:30:50.000Z</time>
      </trkpt>
      <trkpt lat="44.46097" lon="6.20633">
        <ele>692.2</ele>
        <time>2020-09-05T13:30:56.000Z</time>
      </trkpt>
      <trkpt lat="44.46116" lon="6.20715">
        <ele>693</ele>
        <time>2020-09-05T13:30:59.000Z</time>
      </trkpt>
      <trkpt lat="44.46147" lon="6.20881">
        <ele>694.3</ele>
        <time>2020-09-05T13:31:05.000Z</time>
      </trkpt>
      <trkpt lat="44.46159" lon="6.20948">
        <ele>694.9</ele>
        <time>2020-09-05T13:31:08.000Z</time>
      </trkpt>
      <trkpt lat="44.46182" lon="6.21047">
        <ele>692.2</ele>
        <time>2020-09-05T13:31:14.000Z</time>
      </trkpt>
      <trkpt lat="44.46197" lon="6.21152">
        <ele>700</ele>
        <time>2020-09-05T13:31:20.000Z</time>
      </trkpt>
      <trkpt lat="44.46208" lon="6.21236">
        <ele>699.2</ele>
        <time>2020-09-05T13:31:26.000Z</time>
      </trkpt>
      <trkpt lat="44.46204" lon="6.21248">
        <ele>699.1</ele>
        <time>2020-09-05T13:31:29.000Z</time>
      </trkpt>
      <trkpt lat="44.46187" lon="6.21249">
        <ele>700.5</ele>
        <time>2020-09-05T13:31:35.000Z</time>
      </trkpt>
      <trkpt lat="44.46193" lon="6.21254">
        <ele>699.6</ele>
        <time>2020-09-05T13:31:44.000Z</time>
      </trkpt>
      <trkpt lat="44.46202" lon="6.21261">
        <ele>699.9</ele>
        <time>2020-09-05T13:31:47.000Z</time>
      </trkpt>
      <trkpt lat="44.46208" lon="6.21264">
        <ele>699.2</ele>
        <time>2020-09-05T13:31:53.000Z</time>
      </trkpt>
      <trkpt lat="44.46203" lon="6.21276">
        <ele>703.3</ele>
        <time>2020-09-05T13:31:59.000Z</time>
      </trkpt>
      <trkpt lat="44.462" lon="6.21285">
        <ele>702.8</ele>
        <time>2020-09-05T13:32:02.000Z</time>
      </trkpt>
      <trkpt lat="44.46194" lon="6.21294">
        <ele>702.1</ele>
        <time>2020-09-05T13:32:05.258Z</time>
      </trkpt>
      <trkpt lat="44.46184" lon="6.21316">
        <ele>700.1</ele>
        <time>2020-09-05T13:32:10.275Z</time>
      </trkpt>
      <trkpt lat="44.46151" lon="6.21332">
        <ele>699.2</ele>
        <time>2020-09-05T13:32:23.000Z</time>
      </trkpt>
      <trkpt lat="44.4612" lon="6.21357">
        <ele>694.1</ele>
        <time>2020-09-05T13:32:26.000Z</time>
      </trkpt>
      <trkpt lat="44.46096" lon="6.21408">
        <ele>695.3</ele>
        <time>2020-09-05T13:32:31.371Z</time>
      </trkpt>
      <trkpt lat="44.46079" lon="6.21469">
        <ele>694.7</ele>
        <time>2020-09-05T13:32:35.000Z</time>
      </trkpt>
      <trkpt lat="44.4606" lon="6.21546">
        <ele>694.2</ele>
        <time>2020-09-05T13:32:41.000Z</time>
      </trkpt>
      <trkpt lat="44.4606" lon="6.21608">
        <ele>702.7</ele>
        <time>2020-09-05T13:32:47.000Z</time>
      </trkpt>
      <trkpt lat="44.4605" lon="6.21645">
        <ele>703.9</ele>
        <time>2020-09-05T13:32:50.000Z</time>
      </trkpt>
      <trkpt lat="44.46044" lon="6.21688">
        <ele>700</ele>
        <time>2020-09-05T13:32:53.000Z</time>
      </trkpt>
      <trkpt lat="44.46046" lon="6.21776">
        <ele>698.9</ele>
        <time>2020-09-05T13:32:59.000Z</time>
      </trkpt>
      <trkpt lat="44.46041" lon="6.21813">
        <ele>699.8</ele>
        <time>2020-09-05T13:33:02.000Z</time>
      </trkpt>
      <trkpt lat="44.46041" lon="6.21824">
        <ele>698.2</ele>
        <time>2020-09-05T13:33:05.000Z</time>
      </trkpt>
      <trkpt lat="44.46044" lon="6.21819">
        <ele>699.1</ele>
        <time>2020-09-05T13:33:10.399Z</time>
      </trkpt>
      <trkpt lat="44.4606" lon="6.21811">
        <ele>695.6</ele>
        <time>2020-09-05T13:33:14.000Z</time>
      </trkpt>
      <trkpt lat="44.46088" lon="6.21832">
        <ele>700.5</ele>
        <time>2020-09-05T13:33:17.000Z</time>
      </trkpt>
      <trkpt lat="44.46115" lon="6.21854">
        <ele>699.3</ele>
        <time>2020-09-05T13:33:20.000Z</time>
      </trkpt>
      <trkpt lat="44.46168" lon="6.21916">
        <ele>697</ele>
        <time>2020-09-05T13:33:26.000Z</time>
      </trkpt>
      <trkpt lat="44.46189" lon="6.21956">
        <ele>696.1</ele>
        <time>2020-09-05T13:33:29.989Z</time>
      </trkpt>
      <trkpt lat="44.46127" lon="6.22072">
        <ele>694.1</ele>
        <time>2020-09-05T13:33:35.000Z</time>
      </trkpt>
      <trkpt lat="44.46122" lon="6.22179">
        <ele>702.5</ele>
        <time>2020-09-05T13:33:41.000Z</time>
      </trkpt>
      <trkpt lat="44.46119" lon="6.2228">
        <ele>700.7</ele>
        <time>2020-09-05T13:33:47.000Z</time>
      </trkpt>
      <trkpt lat="44.46098" lon="6.22297">
        <ele>700</ele>
        <time>2020-09-05T13:33:53.000Z</time>
      </trkpt>
      <trkpt lat="44.46095" lon="6.22306">
        <ele>700.2</ele>
        <time>2020-09-05T13:33:58.366Z</time>
      </trkpt>
      <trkpt lat="44.46101" lon="6.22327">
        <ele>701.6</ele>
        <time>2020-09-05T13:34:02.000Z</time>
      </trkpt>
      <trkpt lat="44.46115" lon="6.22363">
        <ele>704.9</ele>
        <time>2020-09-05T13:34:05.000Z</time>
      </trkpt>
      <trkpt lat="44.4615" lon="6.22432">
        <ele>702</ele>
        <time>2020-09-05T13:34:08.000Z</time>
      </trkpt>
      <trkpt lat="44.46222" lon="6.22561">
        <ele>702.6</ele>
        <time>2020-09-05T13:34:14.000Z</time>
      </trkpt>
      <trkpt lat="44.4625" lon="6.2261">
        <ele>702</ele>
        <time>2020-09-05T13:34:17.000Z</time>
      </trkpt>
      <trkpt lat="44.46301" lon="6.22702">
        <ele>702.6</ele>
        <time>2020-09-05T13:34:23.000Z</time>
      </trkpt>
      <trkpt lat="44.4633" lon="6.22794">
        <ele>710.4</ele>
        <time>2020-09-05T13:34:29.000Z</time>
      </trkpt>
      <trkpt lat="44.46341" lon="6.22903">
        <ele>704.7</ele>
        <time>2020-09-05T13:34:35.000Z</time>
      </trkpt>
      <trkpt lat="44.46341" lon="6.22945">
        <ele>704.6</ele>
        <time>2020-09-05T13:34:38.000Z</time>
      </trkpt>
      <trkpt lat="44.46337" lon="6.22989">
        <ele>700.2</ele>
        <time>2020-09-05T13:34:44.000Z</time>
      </trkpt>
      <trkpt lat="44.46333" lon="6.2303">
        <ele>697.8</ele>
        <time>2020-09-05T13:34:50.000Z</time>
      </trkpt>
      <trkpt lat="44.46334" lon="6.23064">
        <ele>696.1</ele>
        <time>2020-09-05T13:34:53.000Z</time>
      </trkpt>
      <trkpt lat="44.46354" lon="6.23151">
        <ele>696.4</ele>
        <time>2020-09-05T13:34:59.000Z</time>
      </trkpt>
      <trkpt lat="44.46365" lon="6.2319">
        <ele>696.6</ele>
        <time>2020-09-05T13:35:02.000Z</time>
      </trkpt>
      <trkpt lat="44.46371" lon="6.23208">
        <ele>700.1</ele>
        <time>2020-09-05T13:35:05.000Z</time>
      </trkpt>
      <trkpt lat="44.46382" lon="6.23225">
        <ele>702.2</ele>
        <time>2020-09-05T13:35:11.000Z</time>
      </trkpt>
      <trkpt lat="44.46394" lon="6.23232">
        <ele>700.8</ele>
        <time>2020-09-05T13:35:17.000Z</time>
      </trkpt>
      <trkpt lat="44.464" lon="6.23253">
        <ele>699.7</ele>
        <time>2020-09-05T13:35:20.000Z</time>
      </trkpt>
      <trkpt lat="44.46404" lon="6.23266">
        <ele>698.8</ele>
        <time>2020-09-05T13:35:23.269Z</time>
      </trkpt>
      <trkpt lat="44.4642" lon="6.23268">
        <ele>698.3</ele>
        <time>2020-09-05T13:35:28.306Z</time>
      </trkpt>
      <trkpt lat="44.46453" lon="6.23259">
        <ele>707.8</ele>
        <time>2020-09-05T13:35:32.000Z</time>
      </trkpt>
      <trkpt lat="44.46486" lon="6.23256">
        <ele>712.3</ele>
        <time>2020-09-05T13:35:35.000Z</time>
      </trkpt>
      <trkpt lat="44.46517" lon="6.23306">
        <ele>716.2</ele>
        <time>2020-09-05T13:35:41.000Z</time>
      </trkpt>
      <trkpt lat="44.4653" lon="6.23331">
        <ele>709.3</ele>
        <time>2020-09-05T13:35:44.214Z</time>
      </trkpt>
      <trkpt lat="44.46565" lon="6.23367">
        <ele>709.7</ele>
        <time>2020-09-05T13:35:50.000Z</time>
      </trkpt>
      <trkpt lat="44.46626" lon="6.23374">
        <ele>725.5</ele>
        <time>2020-09-05T13:35:56.000Z</time>
      </trkpt>
      <trkpt lat="44.46665" lon="6.23366">
        <ele>726.7</ele>
        <time>2020-09-05T13:36:00.526Z</time>
      </trkpt>
      <trkpt lat="44.4671" lon="6.23357">
        <ele>731.5</ele>
        <time>2020-09-05T13:36:05.000Z</time>
      </trkpt>
      <trkpt lat="44.46736" lon="6.23347">
        <ele>730.7</ele>
        <time>2020-09-05T13:36:08.000Z</time>
      </trkpt>
      <trkpt lat="44.46786" lon="6.233">
        <ele>731.5</ele>
        <time>2020-09-05T13:36:14.000Z</time>
      </trkpt>
      <trkpt lat="44.46806" lon="6.23278">
        <ele>735.4</ele>
        <time>2020-09-05T13:36:17.000Z</time>
      </trkpt>
      <trkpt lat="44.46847" lon="6.23239">
        <ele>738.2</ele>
        <time>2020-09-05T13:36:23.000Z</time>
      </trkpt>
      <trkpt lat="44.4689" lon="6.23277">
        <ele>747.6</ele>
        <time>2020-09-05T13:36:29.000Z</time>
      </trkpt>
      <trkpt lat="44.46899" lon="6.23307">
        <ele>748.7</ele>
        <time>2020-09-05T13:36:32.000Z</time>
      </trkpt>
      <trkpt lat="44.46916" lon="6.23347">
        <ele>751.7</ele>
        <time>2020-09-05T13:36:38.000Z</time>
      </trkpt>
      <trkpt lat="44.46911" lon="6.23324">
        <ele>755.5</ele>
        <time>2020-09-05T13:36:44.000Z</time>
      </trkpt>
      <trkpt lat="44.46907" lon="6.23308">
        <ele>751.6</ele>
        <time>2020-09-05T13:36:50.000Z</time>
      </trkpt>
      <trkpt lat="44.46902" lon="6.23304">
        <ele>757.3</ele>
        <time>2020-09-05T13:37:05.000Z</time>
      </trkpt>
      <trkpt lat="44.46894" lon="6.23306">
        <ele>761.9</ele>
        <time>2020-09-05T13:37:26.000Z</time>
      </trkpt>
      <trkpt lat="44.46889" lon="6.23311">
        <ele>763.6</ele>
        <time>2020-09-05T13:37:35.000Z</time>
      </trkpt>
      <trkpt lat="44.46896" lon="6.23311">
        <ele>764</ele>
        <time>2020-09-05T13:37:47.000Z</time>
      </trkpt>
      <trkpt lat="44.46903" lon="6.23309">
        <ele>763.7</ele>
        <time>2020-09-05T13:37:53.000Z</time>
      </trkpt>
      <trkpt lat="44.46902" lon="6.23318">
        <ele>763.7</ele>
        <time>2020-09-05T13:38:06.528Z</time>
      </trkpt>
      <trkpt lat="44.46902" lon="6.2331">
        <ele>763.7</ele>
        <time>2020-09-05T13:38:41.670Z</time>
      </trkpt>
      <trkpt lat="44.46902" lon="6.23303">
        <ele>763.7</ele>
        <time>2020-09-05T13:38:51.661Z</time>
      </trkpt>
      <trkpt lat="44.46902" lon="6.23295">
        <ele>763.7</ele>
        <time>2020-09-05T13:39:06.709Z</time>
      </trkpt>
      <trkpt lat="44.46427" lon="6.22283">
        <ele>650.7</ele>
        <time>2020-09-05T13:40:27.008Z</time>
      </trkpt>
      <trkpt lat="44.46427" lon="6.22283">
        <ele>650.7</ele>
        <time>2020-09-05T13:41:17.160Z</time>
      </trkpt>
      <trkpt lat="44.46852" lon="6.23643">
        <ele>728.8</ele>
        <time>2020-09-05T13:42:12.285Z</time>
      </trkpt>
      <trkpt lat="44.46821" lon="6.23676">
        <ele>722.4</ele>
        <time>2020-09-05T13:42:22.622Z</time>
      </trkpt>
      <trkpt lat="44.4681" lon="6.23687">
        <ele>720.2</ele>
        <time>2020-09-05T13:42:27.660Z</time>
      </trkpt>
      <trkpt lat="44.46805" lon="6.23693">
        <ele>719.3</ele>
        <time>2020-09-05T13:42:32.672Z</time>
      </trkpt>
      <trkpt lat="44.46676" lon="6.23643">
        <ele>678.5</ele>
        <time>2020-09-05T13:43:52.983Z</time>
      </trkpt>
      <trkpt lat="44.46813" lon="6.22747">
        <ele>688.2</ele>
        <time>2020-09-05T13:44:43.194Z</time>
      </trkpt>
      <trkpt lat="44.46852" lon="6.23643">
        <ele>728.8</ele>
        <time>2020-09-05T13:45:43.388Z</time>
      </trkpt>
      <trkpt lat="44.46895" lon="6.2324">
        <ele>701.5</ele>
        <time>2020-09-05T13:46:13.929Z</time>
      </trkpt>
      <trkpt lat="44.46915" lon="6.23302">
        <ele>767.1</ele>
        <time>2020-09-05T13:46:17.000Z</time>
      </trkpt>
      <trkpt lat="44.46909" lon="6.23294">
        <ele>757.9</ele>
        <time>2020-09-05T13:46:32.000Z</time>
      </trkpt>
      <trkpt lat="44.46901" lon="6.23295">
        <ele>752.1</ele>
        <time>2020-09-05T14:00:44.000Z</time>
      </trkpt>
      <trkpt lat="44.46893" lon="6.23296">
        <ele>751.7</ele>
        <time>2020-09-05T14:00:51.906Z</time>
      </trkpt>
      <trkpt lat="44.4689" lon="6.23301">
        <ele>751.9</ele>
        <time>2020-09-05T14:01:05.000Z</time>
      </trkpt>
      <trkpt lat="44.46894" lon="6.23303">
        <ele>748.1</ele>
        <time>2020-09-05T14:02:32.351Z</time>
      </trkpt>
      <trkpt lat="44.46899" lon="6.233">
        <ele>753.9</ele>
        <time>2020-09-05T14:04:40.000Z</time>
      </trkpt>
      <trkpt lat="44.46901" lon="6.23293">
        <ele>754.1</ele>
        <time>2020-09-05T14:04:52.000Z</time>
      </trkpt>
      <trkpt lat="44.46905" lon="6.23288">
        <ele>754.2</ele>
        <time>2020-09-05T14:05:28.000Z</time>
      </trkpt>
      <trkpt lat="44.46912" lon="6.23288">
        <ele>754.2</ele>
        <time>2020-09-05T14:05:37.000Z</time>
      </trkpt>
      <trkpt lat="44.46917" lon="6.23287">
        <ele>754.2</ele>
        <time>2020-09-05T14:05:55.000Z</time>
      </trkpt>
      <trkpt lat="44.46919" lon="6.23294">
        <ele>759.7</ele>
        <time>2020-09-05T14:06:37.166Z</time>
      </trkpt>
      <trkpt lat="44.46924" lon="6.23295">
        <ele>757.8</ele>
        <time>2020-09-05T14:06:43.000Z</time>
      </trkpt>
      <trkpt lat="44.46917" lon="6.23293">
        <ele>762.8</ele>
        <time>2020-09-05T14:06:52.000Z</time>
      </trkpt>
      <trkpt lat="44.4691" lon="6.23292">
        <ele>759.6</ele>
        <time>2020-09-05T14:07:01.000Z</time>
      </trkpt>
      <trkpt lat="44.46904" lon="6.23288">
        <ele>761.8</ele>
        <time>2020-09-05T14:07:07.000Z</time>
      </trkpt>
      <trkpt lat="44.469" lon="6.23285">
        <ele>756.2</ele>
        <time>2020-09-05T14:09:58.000Z</time>
      </trkpt>
      <trkpt lat="44.46904" lon="6.23288">
        <ele>753.9</ele>
        <time>2020-09-05T14:10:37.000Z</time>
      </trkpt>
      <trkpt lat="44.46911" lon="6.23286">
        <ele>750.8</ele>
        <time>2020-09-05T14:22:49.157Z</time>
      </trkpt>
      <trkpt lat="44.46906" lon="6.23285">
        <ele>754.2</ele>
        <time>2020-09-05T14:23:08.549Z</time>
      </trkpt>
      <trkpt lat="44.46901" lon="6.23286">
        <ele>754.2</ele>
        <time>2020-09-05T14:23:16.000Z</time>
      </trkpt>
      <trkpt lat="44.46897" lon="6.23286">
        <ele>754.2</ele>
        <time>2020-09-05T14:23:34.000Z</time>
      </trkpt>
      <trkpt lat="44.46902" lon="6.23281">
        <ele>756.5</ele>
        <time>2020-09-05T14:24:13.000Z</time>
      </trkpt>
      <trkpt lat="44.46909" lon="6.23282">
        <ele>762.7</ele>
        <time>2020-09-05T14:24:19.000Z</time>
      </trkpt>
      <trkpt lat="44.46904" lon="6.23282">
        <ele>755</ele>
        <time>2020-09-05T14:24:55.000Z</time>
      </trkpt>
      <trkpt lat="44.46898" lon="6.23281">
        <ele>755</ele>
        <time>2020-09-05T14:25:16.000Z</time>
      </trkpt>
      <trkpt lat="44.46904" lon="6.23282">
        <ele>755</ele>
        <time>2020-09-05T14:25:34.000Z</time>
      </trkpt>
      <trkpt lat="44.4691" lon="6.23285">
        <ele>755</ele>
        <time>2020-09-05T14:25:43.000Z</time>
      </trkpt>
      <trkpt lat="44.46904" lon="6.23282">
        <ele>755</ele>
        <time>2020-09-05T14:26:10.000Z</time>
      </trkpt>
      <trkpt lat="44.46897" lon="6.23283">
        <ele>755</ele>
        <time>2020-09-05T14:26:25.000Z</time>
      </trkpt>
      <trkpt lat="44.46901" lon="6.23287">
        <ele>754.2</ele>
        <time>2020-09-05T14:26:56.155Z</time>
      </trkpt>
      <trkpt lat="44.46908" lon="6.23288">
        <ele>754.2</ele>
        <time>2020-09-05T14:27:01.000Z</time>
      </trkpt>
      <trkpt lat="44.46905" lon="6.23282">
        <ele>755</ele>
        <time>2020-09-05T14:27:14.229Z</time>
      </trkpt>
      <trkpt lat="44.46899" lon="6.2328">
        <ele>755</ele>
        <time>2020-09-05T14:27:26.677Z</time>
      </trkpt>
      <trkpt lat="44.46904" lon="6.2328">
        <ele>754.2</ele>
        <time>2020-09-05T14:27:57.752Z</time>
      </trkpt>
      <trkpt lat="44.46908" lon="6.23287">
        <ele>754.2</ele>
        <time>2020-09-05T14:28:09.674Z</time>
      </trkpt>
      <trkpt lat="44.46908" lon="6.23296">
        <ele>754.2</ele>
        <time>2020-09-05T14:28:19.669Z</time>
      </trkpt>
      <trkpt lat="44.46905" lon="6.23303">
        <ele>754.2</ele>
        <time>2020-09-05T14:28:26.428Z</time>
      </trkpt>
      <trkpt lat="44.46901" lon="6.23305">
        <ele>754.2</ele>
        <time>2020-09-05T14:28:34.030Z</time>
      </trkpt>
      <trkpt lat="44.46899" lon="6.23312">
        <ele>752.9</ele>
        <time>2020-09-05T14:29:05.000Z</time>
      </trkpt>
      <trkpt lat="44.46898" lon="6.2332">
        <ele>753.5</ele>
        <time>2020-09-05T14:29:08.691Z</time>
      </trkpt>
      <trkpt lat="44.46898" lon="6.23335">
        <ele>750</ele>
        <time>2020-09-05T14:29:15.749Z</time>
      </trkpt>
      <trkpt lat="44.46902" lon="6.23347">
        <ele>752.2</ele>
        <time>2020-09-05T14:29:25.737Z</time>
      </trkpt>
      <trkpt lat="44.46903" lon="6.23356">
        <ele>756.1</ele>
        <time>2020-09-05T14:29:29.000Z</time>
      </trkpt>
      <trkpt lat="44.46904" lon="6.23364">
        <ele>753.4</ele>
        <time>2020-09-05T14:29:32.569Z</time>
      </trkpt>
      <trkpt lat="44.46902" lon="6.23375">
        <ele>753.8</ele>
        <time>2020-09-05T14:29:37.580Z</time>
      </trkpt>
      <trkpt lat="44.46905" lon="6.23392">
        <ele>755.1</ele>
        <time>2020-09-05T14:29:44.789Z</time>
      </trkpt>
      <trkpt lat="44.46902" lon="6.23422">
        <ele>760.6</ele>
        <time>2020-09-05T14:29:49.052Z</time>
      </trkpt>
      <trkpt lat="44.46904" lon="6.23435">
        <ele>763.3</ele>
        <time>2020-09-05T14:29:52.219Z</time>
      </trkpt>
      <trkpt lat="44.46905" lon="6.2344">
        <ele>766.9</ele>
        <time>2020-09-05T14:30:01.307Z</time>
      </trkpt>
      <trkpt lat="44.46903" lon="6.23447">
        <ele>766.8</ele>
        <time>2020-09-05T14:30:24.365Z</time>
      </trkpt>
      <trkpt lat="44.46899" lon="6.2345">
        <ele>767.2</ele>
        <time>2020-09-05T14:30:27.835Z</time>
      </trkpt>
      <trkpt lat="44.46896" lon="6.23456">
        <ele>764.6</ele>
        <time>2020-09-05T14:30:31.733Z</time>
      </trkpt>
      <trkpt lat="44.46894" lon="6.23464">
        <ele>767.4</ele>
        <time>2020-09-05T14:30:35.000Z</time>
      </trkpt>
      <trkpt lat="44.46888" lon="6.23481">
        <ele>771.7</ele>
        <time>2020-09-05T14:30:38.589Z</time>
      </trkpt>
      <trkpt lat="44.46884" lon="6.23494">
        <ele>772.1</ele>
        <time>2020-09-05T14:30:42.413Z</time>
      </trkpt>
      <trkpt lat="44.46884" lon="6.23505">
        <ele>777.4</ele>
        <time>2020-09-05T14:30:47.000Z</time>
      </trkpt>
      <trkpt lat="44.46878" lon="6.23517">
        <ele>777.1</ele>
        <time>2020-09-05T14:30:50.000Z</time>
      </trkpt>
      <trkpt lat="44.46876" lon="6.23523">
        <ele>778</ele>
        <time>2020-09-05T14:30:54.428Z</time>
      </trkpt>
      <trkpt lat="44.46875" lon="6.23532">
        <ele>777.7</ele>
        <time>2020-09-05T14:30:58.714Z</time>
      </trkpt>
      <trkpt lat="44.46875" lon="6.2354">
        <ele>785.4</ele>
        <time>2020-09-05T14:31:02.000Z</time>
      </trkpt>
      <trkpt lat="44.46879" lon="6.23535">
        <ele>782</ele>
        <time>2020-09-05T14:31:17.000Z</time>
      </trkpt>
      <trkpt lat="44.46893" lon="6.23545">
        <ele>775.9</ele>
        <time>2020-09-05T14:31:35.000Z</time>
      </trkpt>
      <trkpt lat="44.46899" lon="6.23546">
        <ele>776</ele>
        <time>2020-09-05T14:31:38.000Z</time>
      </trkpt>
      <trkpt lat="44.46897" lon="6.2354">
        <ele>779.6</ele>
        <time>2020-09-05T14:33:14.000Z</time>
      </trkpt>
      <trkpt lat="44.46892" lon="6.2354">
        <ele>781.4</ele>
        <time>2020-09-05T14:47:53.000Z</time>
      </trkpt>
      <trkpt lat="44.46888" lon="6.23546">
        <ele>784.1</ele>
        <time>2020-09-05T14:49:08.000Z</time>
      </trkpt>
      <trkpt lat="44.46878" lon="6.23554">
        <ele>784.5</ele>
        <time>2020-09-05T14:49:11.000Z</time>
      </trkpt>
      <trkpt lat="44.4687" lon="6.23571">
        <ele>784.6</ele>
        <time>2020-09-05T14:49:17.000Z</time>
      </trkpt>
      <trkpt lat="44.46866" lon="6.23562">
        <ele>779</ele>
        <time>2020-09-05T14:49:22.849Z</time>
      </trkpt>
      <trkpt lat="44.46866" lon="6.23554">
        <ele>775.5</ele>
        <time>2020-09-05T14:49:26.000Z</time>
      </trkpt>
      <trkpt lat="44.4687" lon="6.23551">
        <ele>770.4</ele>
        <time>2020-09-05T14:49:32.000Z</time>
      </trkpt>
      <trkpt lat="44.46874" lon="6.23545">
        <ele>769.3</ele>
        <time>2020-09-05T14:49:37.640Z</time>
      </trkpt>
      <trkpt lat="44.46878" lon="6.23537">
        <ele>766.1</ele>
        <time>2020-09-05T14:49:41.000Z</time>
      </trkpt>
      <trkpt lat="44.46889" lon="6.23521">
        <ele>765.4</ele>
        <time>2020-09-05T14:49:47.077Z</time>
      </trkpt>
      <trkpt lat="44.46897" lon="6.23456">
        <ele>761.7</ele>
        <time>2020-09-05T14:49:50.000Z</time>
      </trkpt>
      <trkpt lat="44.46889" lon="6.23364">
        <ele>754.3</ele>
        <time>2020-09-05T14:49:56.000Z</time>
      </trkpt>
      <trkpt lat="44.4689" lon="6.23303">
        <ele>749.2</ele>
        <time>2020-09-05T14:50:02.000Z</time>
      </trkpt>
      <trkpt lat="44.46904" lon="6.23298">
        <ele>751</ele>
        <time>2020-09-05T14:50:08.000Z</time>
      </trkpt>
      <trkpt lat="44.4691" lon="6.23298">
        <ele>753.5</ele>
        <time>2020-09-05T14:50:30.000Z</time>
      </trkpt>
      <trkpt lat="44.46915" lon="6.23299">
        <ele>751.9</ele>
        <time>2020-09-05T14:50:37.920Z</time>
      </trkpt>
      <trkpt lat="44.46911" lon="6.23295">
        <ele>752.3</ele>
        <time>2020-09-05T14:50:58.643Z</time>
      </trkpt>
      <trkpt lat="44.46906" lon="6.23291">
        <ele>752.6</ele>
        <time>2020-09-05T14:51:10.219Z</time>
      </trkpt>
    </trkseg>
  </trk>
</gpx>